Observation data for Lesley on 03/05/2021      Previous  Date  Next       Current Mesonet Observations  Soil Data  Daily Summary Page  Observations in Plain Language
KLE1 050600Z 30015KT 12/M01 A2986 RMK A01 T01231010  RH  040%=      5-min Rain = 0
KLE1 050601Z 30015KT 12/M01 A2986 RMK A01 T01231010  RH  040%=      5-min Rain = 0
KLE1 050602Z 29014KT 12/M01 A2986 RMK A01 T01231009  RH  040%=      5-min Rain = 0
KLE1 050603Z 30014KT 12/M01 A2986 RMK A01 T01231009  RH  040%=      5-min Rain = 0
KLE1 050604Z 30015KT 12/M01 A2986 RMK A01 T01221009  RH  040%=      5-min Rain = 0
KLE1 050605Z 30015KT 12/M01 A2986 RMK A01 T01221008  RH  040%=      5-min Rain = 0
KLE1 050606Z 30015KT 12/M01 A2986 RMK A01 T01221009  RH  040%=      5-min Rain = 0
KLE1 050607Z 30014KT 12/M01 A2986 RMK A01 T01221009  RH  040%=      5-min Rain = 0
KLE1 050608Z 30015KT 12/M01 A2986 RMK A01 T01211009  RH  041%=      5-min Rain = 0
KLE1 050609Z 30015KT 12/M01 A2986 RMK A01 T01211008  RH  041%=      5-min Rain = 0
KLE1 050610Z 30015KT 12/M01 A2986 RMK A01 T01201008  RH  041%=      5-min Rain = 0
KLE1 050611Z 30015KT 12/M01 A2986 RMK A01 T01201008  RH  041%=      5-min Rain = 0
KLE1 050612Z 30014KT 12/M01 A2986 RMK A01 T01191008  RH  041%=      5-min Rain = 0
KLE1 050613Z 30014KT 12/M01 A2986 RMK A01 T01191008  RH  041%=      5-min Rain = 0
KLE1 050614Z 30014KT 12/M01 A2986 RMK A01 T01191008  RH  042%=      5-min Rain = 0
KLE1 050615Z 30014KT 12/M01 A2986 RMK A01 T01181008  RH  042%=      5-min Rain = 0
KLE1 050616Z 29014KT 12/M01 A2986 RMK A01 T01181008  RH  042%=      5-min Rain = 0
KLE1 050617Z 29014KT 12/M01 A2986 RMK A01 T01171008  RH  042%=      5-min Rain = 0
KLE1 050618Z 29014KT 12/M01 A2986 RMK A01 T01161008  RH  042%=      5-min Rain = 0
KLE1 050619Z 29014KT 12/M01 A2986 RMK A01 T01151008  RH  042%=      5-min Rain = 0
KLE1 050620Z 29013KT 11/M01 A2986 RMK A01 T01141008  RH  043%=      5-min Rain = 0
KLE1 050621Z 29013KT 11/M01 A2986 RMK A01 T01131009  RH  043%=      5-min Rain = 0
KLE1 050622Z 29013KT 11/M01 A2986 RMK A01 T01111009  RH  043%=      5-min Rain = 0
KLE1 050623Z 29013KT 11/M01 A2986 RMK A01 T01101009  RH  044%=      5-min Rain = 0
KLE1 050624Z 28013KT 11/M01 A2986 RMK A01 T01081009  RH  044%=      5-min Rain = 0
KLE1 050625Z 28013KT 11/M01 A2986 RMK A01 T01071009  RH  044%=      5-min Rain = 0
KLE1 050626Z 28012KT 11/M01 A2986 RMK A01 T01061009  RH  045%=      5-min Rain = 0
KLE1 050627Z 28012KT 11/M01 A2986 RMK A01 T01051009  RH  045%=      5-min Rain = 0
KLE1 050628Z 28012KT 10/M01 A2986 RMK A01 T01041009  RH  046%=      5-min Rain = 0
KLE1 050629Z 28012KT 10/M01 A2986 RMK A01 T01031008  RH  046%=      5-min Rain = 0
KLE1 050630Z 28013KT 10/M01 A2986 RMK A01 T01021008  RH  046%=      5-min Rain = 0
KLE1 050631Z 28013KT 10/M01 A2986 RMK A01 T01021008  RH  046%=      5-min Rain = 0
KLE1 050632Z 28014KT 10/M01 A2986 RMK A01 T01021008  RH  046%=      5-min Rain = 0
KLE1 050633Z 29013KT 10/M01 A2986 RMK A01 T01021008  RH  046%=      5-min Rain = 0
KLE1 050634Z 29013KT 10/M01 A2986 RMK A01 T01031007  RH  046%=      5-min Rain = 0
KLE1 050635Z 29013KT 10/M01 A2986 RMK A01 T01031007  RH  046%=      5-min Rain = 0
KLE1 050636Z 29013KT 10/M01 A2987 RMK A01 T01031007  RH  046%=      5-min Rain = 0
KLE1 050637Z 29013KT 10/M01 A2987 RMK A01 T01031007  RH  046%=      5-min Rain = 0
KLE1 050638Z 29012KT 10/M01 A2987 RMK A01 T01021007  RH  047%=      5-min Rain = 0
KLE1 050639Z 29012KT 10/M01 A2987 RMK A01 T01011007  RH  047%=      5-min Rain = 0
KLE1 050640Z 29012KT 10/M01 A2987 RMK A01 T01001008  RH  047%=      5-min Rain = 0
KLE1 050641Z 29012KT 10/M01 A2987 RMK A01 T01001007  RH  047%=      5-min Rain = 0
KLE1 050642Z 29012KT 10/M01 A2987 RMK A01 T00981008  RH  048%=      5-min Rain = 0
KLE1 050643Z 29012KT 10/M01 A2987 RMK A01 T00981008  RH  048%=      5-min Rain = 0
KLE1 050644Z 29012KT 10/M01 A2987 RMK A01 T00971008  RH  048%=      5-min Rain = 0
KLE1 050645Z 29012KT 10/M01 A2987 RMK A01 T00971008  RH  048%=      5-min Rain = 0
KLE1 050646Z 29012KT 10/M01 A2987 RMK A01 T00971007  RH  048%=      5-min Rain = 0
KLE1 050647Z 29012KT 10/M01 A2987 RMK A01 T00971007  RH  048%=      5-min Rain = 0
KLE1 050648Z 29012KT 10/M01 A2987 RMK A01 T00971007  RH  048%=      5-min Rain = 0
KLE1 050649Z 29012KT 10/M01 A2987 RMK A01 T00971007  RH  048%=      5-min Rain = 0
KLE1 050650Z 28011KT 10/M01 A2987 RMK A01 T00971007  RH  048%=      5-min Rain = 0
KLE1 050651Z 28012KT 10/M01 A2987 RMK A01 T00971007  RH  048%=      5-min Rain = 0
KLE1 050652Z 28012KT 10/M01 A2987 RMK A01 T00971007  RH  048%=      5-min Rain = 0
KLE1 050653Z 28012KT 10/M01 A2987 RMK A01 T00971007  RH  048%=      5-min Rain = 0
KLE1 050654Z 28012KT 10/M01 A2988 RMK A01 T00971007  RH  048%=      5-min Rain = 0
KLE1 050655Z 28012KT 10/M01 A2988 RMK A01 T00981006  RH  048%=      5-min Rain = 0
KLE1 050656Z 28013KT 10/M01 A2988 RMK A01 T00981006  RH  048%=      5-min Rain = 0
KLE1 050657Z 28013KT 10/M01 A2988 RMK A01 T00991006  RH  048%=      5-min Rain = 0
KLE1 050658Z 28014KT 10/M01 A2988 RMK A01 T01001005  RH  048%=      5-min Rain = 0
KLE1 050659Z 28013KT 10/M01 A2988 RMK A01 T01001005  RH  048%=      5-min Rain = 0
KLE1 050700Z 29013KT 10/M01 A2988 RMK A01 T01001006  RH  048%=      5-min Rain = 0
KLE1 050701Z 29013KT 10/M01 A2988 RMK A01 T01001006  RH  048%=      5-min Rain = 0
KLE1 050702Z 29012KT 10/M01 A2988 RMK A01 T01001006  RH  048%=      5-min Rain = 0
KLE1 050703Z 29012KT 10/M01 A2988 RMK A01 T01001005  RH  048%=      5-min Rain = 0
KLE1 050704Z 30012KT 10/M01 A2988 RMK A01 T00991006  RH  048%=      5-min Rain = 0
KLE1 050705Z 30012KT 10/M01 A2988 RMK A01 T00981006  RH  048%=      5-min Rain = 0
KLE1 050706Z 30012KT 10/M01 A2988 RMK A01 T00971006  RH  049%=      5-min Rain = 0
KLE1 050707Z 30013KT 10/M01 A2988 RMK A01 T00981005  RH  049%=      5-min Rain = 0
KLE1 050708Z 30013KT 10/M00 A2988 RMK A01 T01001004  RH  048%=      5-min Rain = 0
KLE1 050709Z 30014KT 10/M00 A2988 RMK A01 T01021003  RH  048%=      5-min Rain = 0
KLE1 050710Z 30013KT 10/M00 A2988 RMK A01 T01041003  RH  047%=      5-min Rain = 0
KLE1 050711Z 31013KT 11/M00 A2989 RMK A01 T01051003  RH  047%=      5-min Rain = 0
KLE1 050712Z 31014KT 11/M00 A2989 RMK A01 T01061003  RH  047%=      5-min Rain = 0
KLE1 050713Z 31013KT 11/M00 A2989 RMK A01 T01091001  RH  046%=      5-min Rain = 0
KLE1 050714Z 30013KT 11/M00 A2989 RMK A01 T01101003  RH  046%=      5-min Rain = 0
KLE1 050715Z 30012KT 11/M00 A2989 RMK A01 T01111003  RH  045%=      5-min Rain = 0
KLE1 050716Z 30013KT 11/M00 A2989 RMK A01 T01111003  RH  045%=      5-min Rain = 0
KLE1 050717Z 30012KT 11/M00 A2989 RMK A01 T01111003  RH  045%=      5-min Rain = 0
KLE1 050718Z 30011KT 11/M00 A2989 RMK A01 T01111003  RH  045%=      5-min Rain = 0
KLE1 050719Z 31013KT 11/M00 A2989 RMK A01 T01101003  RH  046%=      5-min Rain = 0
KLE1 050720Z 31013G18KT 11/M00 A2989 RMK A01 T01111002  RH  046%=      5-min Rain = 0
KLE1 050721Z 31013KT 11/M00 A2989 RMK A01 T01121001  RH  046%=      5-min Rain = 0
KLE1 050722Z 31014KT 11/M00 A2989 RMK A01 T01121001  RH  046%=      5-min Rain = 0
KLE1 050723Z 31015KT 11/00 A2989 RMK A01 T011300-0  RH  046%=      5-min Rain = 0
KLE1 050724Z 30016KT 11/00 A2989 RMK A01 T01140000  RH  045%=      5-min Rain = 0
KLE1 050725Z 31015G21KT 12/00 A2989 RMK A01 T01160000  RH  045%=      5-min Rain = 0
KLE1 050726Z 31015KT 12/00 A2988 RMK A01 T01160001  RH  045%=      5-min Rain = 0
KLE1 050727Z 31016KT 12/00 A2988 RMK A01 T01170000  RH  045%=      5-min Rain = 0
KLE1 050728Z 31015KT 12/00 A2988 RMK A01 T01180001  RH  045%=      5-min Rain = 0
KLE1 050729Z 31014KT 12/00 A2988 RMK A01 T01180000  RH  044%=      5-min Rain = 0
KLE1 050730Z 31015KT 12/00 A2988 RMK A01 T01170000  RH  045%=      5-min Rain = 0
KLE1 050731Z 31015KT 12/00 A2988 RMK A01 T01170001  RH  045%=      5-min Rain = 0
KLE1 050732Z 31013KT 12/00 A2989 RMK A01 T01170001  RH  045%=      5-min Rain = 0
KLE1 050733Z 31012KT 12/00 A2989 RMK A01 T011500-0  RH  045%=      5-min Rain = 0
KLE1 050734Z 31014KT 12/00 A2989 RMK A01 T01150001  RH  045%=      5-min Rain = 0
KLE1 050735Z 31013KT 12/00 A2989 RMK A01 T01150001  RH  045%=      5-min Rain = 0
KLE1 050736Z 31013KT 11/00 A2989 RMK A01 T01140000  RH  045%=      5-min Rain = 0
KLE1 050737Z 30012KT 11/00 A2989 RMK A01 T01140001  RH  045%=      5-min Rain = 0
KLE1 050738Z 30012KT 11/00 A2989 RMK A01 T01140000  RH  046%=      5-min Rain = 0
KLE1 050739Z 30013KT 11/00 A2989 RMK A01 T011200-0  RH  046%=      5-min Rain = 0
KLE1 050740Z 30014KT 11/00 A2989 RMK A01 T01130000  RH  046%=      5-min Rain = 0
KLE1 050741Z 30013KT 11/00 A2989 RMK A01 T01140001  RH  046%=      5-min Rain = 0
KLE1 050742Z 30012KT 12/00 A2989 RMK A01 T01150001  RH  045%=      5-min Rain = 0
KLE1 050743Z 30013KT 11/00 A2989 RMK A01 T01130000  RH  046%=      5-min Rain = 0
KLE1 050744Z 31012KT 11/00 A2989 RMK A01 T01130000  RH  046%=      5-min Rain = 0
KLE1 050745Z 30012KT 11/00 A2989 RMK A01 T01120000  RH  046%=      5-min Rain = 0
KLE1 050746Z 30010KT 11/00 A2989 RMK A01 T01110000  RH  046%=      5-min Rain = 0
KLE1 050747Z 30012KT 11/00 A2989 RMK A01 T011000-0  RH  046%=      5-min Rain = 0
KLE1 050748Z 30011KT 11/00 A2989 RMK A01 T01110001  RH  047%=      5-min Rain = 0
KLE1 050749Z 30011KT 11/00 A2989 RMK A01 T01100000  RH  046%=      5-min Rain = 0
KLE1 050750Z 30011KT 11/M00 A2989 RMK A01 T01091001  RH  047%=      5-min Rain = 0
KLE1 050751Z 30013KT 11/00 A2989 RMK A01 T01080000  RH  047%=      5-min Rain = 0
KLE1 050752Z 29012KT 11/00 A2989 RMK A01 T01080000  RH  047%=      5-min Rain = 0
KLE1 050753Z 29013KT 11/00 A2989 RMK A01 T010800-0  RH  047%=      5-min Rain = 0
KLE1 050754Z 30014KT 11/00 A2989 RMK A01 T01070000  RH  048%=      5-min Rain = 0
KLE1 050755Z 30014KT 11/00 A2989 RMK A01 T01090001  RH  047%=      5-min Rain = 0
KLE1 050756Z 30013KT 11/00 A2989 RMK A01 T01090001  RH  047%=      5-min Rain = 0
KLE1 050757Z 30013KT 11/00 A2989 RMK A01 T01080000  RH  047%=      5-min Rain = 0
KLE1 050758Z 30013KT 11/00 A2989 RMK A01 T01080001  RH  048%=      5-min Rain = 0
KLE1 050759Z 30013KT 11/00 A2989 RMK A01 T01080001  RH  048%=      5-min Rain = 0
KLE1 050800Z 30013KT 11/00 A299 RMK A01 T01070001  RH  048%=      5-min Rain = 0
KLE1 050801Z 31016KT 11/00 A299 RMK A01 T01080002  RH  048%=      5-min Rain = 0
KLE1 050802Z 30014KT 11/00 A299 RMK A01 T01090002  RH  048%=      5-min Rain = 0
KLE1 050803Z 30015KT 11/00 A299 RMK A01 T01090002  RH  047%=      5-min Rain = 0
KLE1 050804Z 30014G19KT 11/00 A299 RMK A01 T01090002  RH  047%=      5-min Rain = 0
KLE1 050805Z 31017KT 11/00 A299 RMK A01 T01090002  RH  048%=      5-min Rain = 0
KLE1 050806Z 31019KT 11/00 A299 RMK A01 T01090003  RH  048%=      5-min Rain = 0
KLE1 050807Z 31016KT 11/00 A299 RMK A01 T01100003  RH  048%=      5-min Rain = 0
KLE1 050808Z 31017KT 11/00 A299 RMK A01 T01100003  RH  047%=      5-min Rain = 0
KLE1 050809Z 31016KT 11/00 A299 RMK A01 T01090003  RH  048%=      5-min Rain = 0
KLE1 050810Z 32017KT 11/00 A299 RMK A01 T01090003  RH  048%=      5-min Rain = 0
KLE1 050811Z 30013KT 11/00 A299 RMK A01 T01080003  RH  048%=      5-min Rain = 0
KLE1 050812Z 30012KT 11/00 A299 RMK A01 T01060002  RH  048%=      5-min Rain = 0
KLE1 050813Z 30013KT 11/00 A299 RMK A01 T01050002  RH  049%=      5-min Rain = 0
KLE1 050814Z 30013KT 10/00 A299 RMK A01 T01040002  RH  049%=      5-min Rain = 0
KLE1 050815Z 30013KT 10/00 A299 RMK A01 T01040002  RH  049%=      5-min Rain = 0
KLE1 050816Z 30016KT 10/00 A299 RMK A01 T01040002  RH  049%=      5-min Rain = 0
KLE1 050817Z 30014KT 11/00 A299 RMK A01 T01050003  RH  049%=      5-min Rain = 0
KLE1 050818Z 30016KT 11/00 A299 RMK A01 T01050003  RH  049%=      5-min Rain = 0
KLE1 050819Z 30013KT 11/00 A299 RMK A01 T01050003  RH  049%=      5-min Rain = 0
KLE1 050820Z 30013KT 10/00 A299 RMK A01 T01030002  RH  049%=      5-min Rain = 0
KLE1 050821Z 30014KT 10/00 A299 RMK A01 T01020002  RH  050%=      5-min Rain = 0
KLE1 050822Z 30015KT 10/00 A299 RMK A01 T01010002  RH  050%=      5-min Rain = 0
KLE1 050823Z 29014KT 10/00 A299 RMK A01 T01010003  RH  050%=      5-min Rain = 0
KLE1 050824Z 30014KT 10/00 A299 RMK A01 T01000002  RH  051%=      5-min Rain = 0
KLE1 050825Z 30014KT 10/00 A299 RMK A01 T00990002  RH  051%=      5-min Rain = 0
KLE1 050826Z 30015KT 10/00 A299 RMK A01 T00990003  RH  051%=      5-min Rain = 0
KLE1 050827Z 30014KT 10/00 A2991 RMK A01 T00990003  RH  051%=      5-min Rain = 0
KLE1 050828Z 30014KT 10/00 A2991 RMK A01 T00990003  RH  051%=      5-min Rain = 0
KLE1 050829Z 30014KT 10/00 A2991 RMK A01 T00990003  RH  051%=      5-min Rain = 0
KLE1 050830Z 30015KT 10/00 A2991 RMK A01 T00980003  RH  051%=      5-min Rain = 0
KLE1 050831Z 31015KT 10/00 A2991 RMK A01 T00990003  RH  051%=      5-min Rain = 0
KLE1 050832Z 31014KT 10/00 A2991 RMK A01 T01000004  RH  051%=      5-min Rain = 0
KLE1 050833Z 31014KT 10/00 A2991 RMK A01 T00990003  RH  051%=      5-min Rain = 0
KLE1 050834Z 31013KT 10/00 A2991 RMK A01 T00990004  RH  051%=      5-min Rain = 0
KLE1 050835Z 30013KT 10/00 A2991 RMK A01 T00990004  RH  052%=      5-min Rain = 0
KLE1 050836Z 30012KT 10/00 A2991 RMK A01 T00980003  RH  052%=      5-min Rain = 0
KLE1 050837Z 30013KT 10/00 A2991 RMK A01 T00980003  RH  052%=      5-min Rain = 0
KLE1 050838Z 30012KT 10/00 A2991 RMK A01 T00980003  RH  052%=      5-min Rain = 0
KLE1 050839Z 29012KT 10/00 A2991 RMK A01 T00970003  RH  052%=      5-min Rain = 0
KLE1 050840Z 29012KT 10/00 A2991 RMK A01 T00960003  RH  052%=      5-min Rain = 0
KLE1 050841Z 29011KT 10/00 A2991 RMK A01 T00950003  RH  053%=      5-min Rain = 0
KLE1 050842Z 29012KT 09/00 A2991 RMK A01 T00930002  RH  053%=      5-min Rain = 0
KLE1 050843Z 29013KT 09/00 A2991 RMK A01 T00920002  RH  053%=      5-min Rain = 0
KLE1 050844Z 29012KT 09/00 A2991 RMK A01 T00910002  RH  054%=      5-min Rain = 0
KLE1 050845Z 30012KT 09/00 A2991 RMK A01 T00900002  RH  054%=      5-min Rain = 0
KLE1 050846Z 29013KT 09/00 A2991 RMK A01 T00900002  RH  054%=      5-min Rain = 0
KLE1 050847Z 30013KT 09/00 A2991 RMK A01 T00900003  RH  054%=      5-min Rain = 0
KLE1 050848Z 29013KT 09/00 A2991 RMK A01 T00900003  RH  055%=      5-min Rain = 0
KLE1 050849Z 30013KT 09/00 A2991 RMK A01 T00890003  RH  054%=      5-min Rain = 0
KLE1 050850Z 30013KT 09/00 A2991 RMK A01 T00890003  RH  055%=      5-min Rain = 0
KLE1 050851Z 30012KT 09/00 A2991 RMK A01 T00890003  RH  055%=      5-min Rain = 0
KLE1 050852Z 30012KT 09/00 A2991 RMK A01 T00890003  RH  055%=      5-min Rain = 0
KLE1 050853Z 30012KT 09/00 A2991 RMK A01 T00890002  RH  055%=      5-min Rain = 0
KLE1 050854Z 30012KT 09/00 A2991 RMK A01 T00880002  RH  055%=      5-min Rain = 0
KLE1 050855Z 31012KT 09/00 A2992 RMK A01 T00880002  RH  055%=      5-min Rain = 0
KLE1 050856Z 31012KT 09/00 A2992 RMK A01 T00880002  RH  055%=      5-min Rain = 0
KLE1 050857Z 31011KT 09/00 A2992 RMK A01 T00880002  RH  055%=      5-min Rain = 0
KLE1 050858Z 31012KT 09/00 A2992 RMK A01 T00870002  RH  055%=      5-min Rain = 0
KLE1 050859Z 32012KT 09/00 A2992 RMK A01 T00860002  RH  055%=      5-min Rain = 0
KLE1 050900Z 32012KT 09/00 A2992 RMK A01 T00860002  RH  055%=      5-min Rain = 0
KLE1 050901Z 32012KT 09/00 A2992 RMK A01 T00860002  RH  056%=      5-min Rain = 0
KLE1 050902Z 32012KT 09/00 A2991 RMK A01 T00860002  RH  056%=      5-min Rain = 0
KLE1 050903Z 31013KT 09/00 A2991 RMK A01 T00860003  RH  056%=      5-min Rain = 0
KLE1 050904Z 31013KT 09/00 A2991 RMK A01 T00870004  RH  056%=      5-min Rain = 0
KLE1 050905Z 32012KT 09/00 A2991 RMK A01 T00880004  RH  056%=      5-min Rain = 0
KLE1 050906Z 32013KT 09/00 A2991 RMK A01 T00880004  RH  055%=      5-min Rain = 0
KLE1 050907Z 32012KT 09/00 A2991 RMK A01 T00890004  RH  055%=      5-min Rain = 0
KLE1 050908Z 32013KT 09/00 A2991 RMK A01 T00900004  RH  055%=      5-min Rain = 0
KLE1 050909Z 31014KT 09/00 A2991 RMK A01 T00900004  RH  055%=      5-min Rain = 0
KLE1 050910Z 31015KT 09/00 A2991 RMK A01 T00890004  RH  055%=      5-min Rain = 0
KLE1 050911Z 31015KT 09/01 A2991 RMK A01 T00900005  RH  055%=      5-min Rain = 0
KLE1 050912Z 31015KT 09/01 A2991 RMK A01 T00920005  RH  055%=      5-min Rain = 0
KLE1 050913Z 31015KT 09/01 A2991 RMK A01 T00920005  RH  055%=      5-min Rain = 0
KLE1 050914Z 31015KT 09/01 A2991 RMK A01 T00910005  RH  055%=      5-min Rain = 0
KLE1 050915Z 31016KT 09/01 A2991 RMK A01 T00910005  RH  055%=      5-min Rain = 0
KLE1 050916Z 31016KT 09/01 A2991 RMK A01 T00910005  RH  055%=      5-min Rain = 0
KLE1 050917Z 31015G20KT 09/01 A299 RMK A01 T00920006  RH  055%=      5-min Rain = 0
KLE1 050918Z 31016KT 09/01 A299 RMK A01 T00920005  RH  055%=      5-min Rain = 0
KLE1 050919Z 31017KT 09/01 A2991 RMK A01 T00920006  RH  055%=      5-min Rain = 0
KLE1 050920Z 31015KT 09/01 A2991 RMK A01 T00910005  RH  055%=      5-min Rain = 0
KLE1 050921Z 30016KT 09/01 A2991 RMK A01 T00900005  RH  055%=      5-min Rain = 0
KLE1 050922Z 30015KT 09/01 A2991 RMK A01 T00890005  RH  055%=      5-min Rain = 0
KLE1 050923Z 30015KT 09/01 A2991 RMK A01 T00890005  RH  056%=      5-min Rain = 0
KLE1 050924Z 30015KT 09/01 A2991 RMK A01 T00890005  RH  056%=      5-min Rain = 0
KLE1 050925Z 30015KT 09/01 A2991 RMK A01 T00890006  RH  056%=      5-min Rain = 0
KLE1 050926Z 30015KT 09/01 A2991 RMK A01 T00900006  RH  056%=      5-min Rain = 0
KLE1 050927Z 30015KT 09/01 A2991 RMK A01 T00900006  RH  056%=      5-min Rain = 0
KLE1 050928Z 29015KT 09/01 A2991 RMK A01 T00890006  RH  056%=      5-min Rain = 0
KLE1 050929Z 30015KT 09/01 A2991 RMK A01 T00890006  RH  056%=      5-min Rain = 0
KLE1 050930Z 30014KT 09/01 A2991 RMK A01 T00890006  RH  056%=      5-min Rain = 0
KLE1 050931Z 29015KT 09/01 A2991 RMK A01 T00880005  RH  056%=      5-min Rain = 0
KLE1 050932Z 29014KT 09/01 A2992 RMK A01 T00880005  RH  056%=      5-min Rain = 0
KLE1 050933Z 30013KT 09/01 A2992 RMK A01 T00870005  RH  056%=      5-min Rain = 0
KLE1 050934Z 30013KT 09/01 A2992 RMK A01 T00860005  RH  057%=      5-min Rain = 0
KLE1 050935Z 30013KT 09/01 A2992 RMK A01 T00860006  RH  057%=      5-min Rain = 0
KLE1 050936Z 30013KT 09/01 A2992 RMK A01 T00860006  RH  057%=      5-min Rain = 0
KLE1 050937Z 30013KT 09/01 A2992 RMK A01 T00860006  RH  057%=      5-min Rain = 0
KLE1 050938Z 30013KT 09/01 A2993 RMK A01 T00860006  RH  057%=      5-min Rain = 0
KLE1 050939Z 31013KT 09/01 A2993 RMK A01 T00850006  RH  058%=      5-min Rain = 0
KLE1 050940Z 31012KT 09/01 A2993 RMK A01 T00850007  RH  058%=      5-min Rain = 0
KLE1 050941Z 31012KT 09/01 A2993 RMK A01 T00860006  RH  057%=      5-min Rain = 0
KLE1 050942Z 31012KT 09/01 A2993 RMK A01 T00860007  RH  058%=      5-min Rain = 0
KLE1 050943Z 32011KT 09/01 A2993 RMK A01 T00860007  RH  058%=      5-min Rain = 0
KLE1 050944Z 32011KT 09/01 A2993 RMK A01 T00850006  RH  058%=      5-min Rain = 0
KLE1 050945Z 32010KT 08/01 A2993 RMK A01 T00840006  RH  058%=      5-min Rain = 0
KLE1 050946Z 32009KT 08/01 A2993 RMK A01 T00830005  RH  058%=      5-min Rain = 0
KLE1 050947Z 32009KT 08/01 A2993 RMK A01 T00820006  RH  059%=      5-min Rain = 0
KLE1 050948Z 31009KT 08/01 A2993 RMK A01 T00820006  RH  059%=      5-min Rain = 0
KLE1 050949Z 31009KT 08/01 A2993 RMK A01 T00810006  RH  059%=      5-min Rain = 0
KLE1 050950Z 31009KT 08/01 A2993 RMK A01 T00800006  RH  059%=      5-min Rain = 0
KLE1 050951Z 31008KT 08/01 A2993 RMK A01 T00800006  RH  059%=      5-min Rain = 0
KLE1 050952Z 31008KT 08/01 A2994 RMK A01 T00800006  RH  060%=      5-min Rain = 0
KLE1 050953Z 32008KT 08/01 A2994 RMK A01 T00790006  RH  060%=      5-min Rain = 0
KLE1 050954Z 32008KT 08/01 A2994 RMK A01 T00790006  RH  060%=      5-min Rain = 0
KLE1 050955Z 32008KT 08/01 A2994 RMK A01 T00780006  RH  060%=      5-min Rain = 0
KLE1 050956Z 32008KT 08/01 A2994 RMK A01 T00770005  RH  060%=      5-min Rain = 0
KLE1 050957Z 32008KT 08/01 A2994 RMK A01 T00770005  RH  060%=      5-min Rain = 0
KLE1 050958Z 32008KT 08/01 A2994 RMK A01 T00770006  RH  061%=      5-min Rain = 0
KLE1 050959Z 32009KT 08/01 A2994 RMK A01 T00760005  RH  061%=      5-min Rain = 0
KLE1 051000Z 32009KT 08/01 A2994 RMK A01 T00770006  RH  061%=      5-min Rain = 0
KLE1 051001Z 32008KT 08/01 A2994 RMK A01 T00780007  RH  061%=      5-min Rain = 0
KLE1 051002Z 32009KT 08/01 A2995 RMK A01 T00780007  RH  061%=      5-min Rain = 0
KLE1 051003Z 32009KT 08/01 A2995 RMK A01 T00780008  RH  061%=      5-min Rain = 0
KLE1 051004Z 32009KT 08/01 A2995 RMK A01 T00790008  RH  061%=      5-min Rain = 0
KLE1 051005Z 32008KT 08/01 A2995 RMK A01 T00800007  RH  060%=      5-min Rain = 0
KLE1 051006Z 32009KT 08/01 A2995 RMK A01 T00790007  RH  060%=      5-min Rain = 0
KLE1 051007Z 32009KT 08/01 A2995 RMK A01 T00790007  RH  061%=      5-min Rain = 0
KLE1 051008Z 32009KT 08/01 A2995 RMK A01 T00770007  RH  061%=      5-min Rain = 0
KLE1 051009Z 32009KT 08/01 A2995 RMK A01 T00770007  RH  061%=      5-min Rain = 0
KLE1 051010Z 31009KT 08/01 A2995 RMK A01 T00760006  RH  061%=      5-min Rain = 0
KLE1 051011Z 32009KT 08/01 A2995 RMK A01 T00750006  RH  062%=      5-min Rain = 0
KLE1 051012Z 32010KT 08/01 A2994 RMK A01 T00750007  RH  062%=      5-min Rain = 0
KLE1 051013Z 32011KT 08/01 A2994 RMK A01 T00750007  RH  062%=      5-min Rain = 0
KLE1 051014Z 32011KT 08/01 A2994 RMK A01 T00760008  RH  062%=      5-min Rain = 0
KLE1 051015Z 32010KT 08/01 A2994 RMK A01 T00760008  RH  062%=      5-min Rain = 0
KLE1 051016Z 32011KT 08/01 A2994 RMK A01 T00770008  RH  062%=      5-min Rain = 0
KLE1 051017Z 31011KT 08/01 A2994 RMK A01 T00770008  RH  062%=      5-min Rain = 0
KLE1 051018Z 31011KT 08/01 A2994 RMK A01 T00760008  RH  062%=      5-min Rain = 0
KLE1 051019Z 31011KT 08/01 A2994 RMK A01 T00760008  RH  062%=      5-min Rain = 0
KLE1 051020Z 31011KT 08/01 A2994 RMK A01 T00760008  RH  062%=      5-min Rain = 0
KLE1 051021Z 31012KT 08/01 A2994 RMK A01 T00760008  RH  062%=      5-min Rain = 0
KLE1 051022Z 31012KT 08/01 A2994 RMK A01 T00760008  RH  062%=      5-min Rain = 0
KLE1 051023Z 31013KT 08/01 A2993 RMK A01 T00760008  RH  062%=      5-min Rain = 0
KLE1 051024Z 31013KT 08/01 A2993 RMK A01 T00760009  RH  062%=      5-min Rain = 0
KLE1 051025Z 31012KT 08/01 A2993 RMK A01 T00760009  RH  062%=      5-min Rain = 0
KLE1 051026Z 31013KT 08/01 A2993 RMK A01 T00770009  RH  062%=      5-min Rain = 0
KLE1 051027Z 31012KT 08/01 A2993 RMK A01 T00780010  RH  062%=      5-min Rain = 0
KLE1 051028Z 31012KT 08/01 A2993 RMK A01 T00780009  RH  062%=      5-min Rain = 0
KLE1 051029Z 31012KT 08/01 A2993 RMK A01 T00780009  RH  062%=      5-min Rain = 0
KLE1 051030Z 31013KT 08/01 A2993 RMK A01 T00770009  RH  062%=      5-min Rain = 0
KLE1 051031Z 30012KT 08/01 A2994 RMK A01 T00770010  RH  062%=      5-min Rain = 0
KLE1 051032Z 31013KT 08/01 A2994 RMK A01 T00770010  RH  062%=      5-min Rain = 0
KLE1 051033Z 30012KT 08/01 A2994 RMK A01 T00770010  RH  062%=      5-min Rain = 0
KLE1 051034Z 30012KT 08/01 A2994 RMK A01 T00780010  RH  062%=      5-min Rain = 0
KLE1 051035Z 30012KT 08/01 A2994 RMK A01 T00770010  RH  062%=      5-min Rain = 0
KLE1 051036Z 30013KT 08/01 A2993 RMK A01 T00770010  RH  063%=      5-min Rain = 0
KLE1 051037Z 30012KT 08/01 A2993 RMK A01 T00770010  RH  063%=      5-min Rain = 0
KLE1 051038Z 31011KT 08/01 A2993 RMK A01 T00780011  RH  063%=      5-min Rain = 0
KLE1 051039Z 30011KT 08/01 A2993 RMK A01 T00780011  RH  063%=      5-min Rain = 0
KLE1 051040Z 31011KT 08/01 A2993 RMK A01 T00770011  RH  063%=      5-min Rain = 0
KLE1 051041Z 30011KT 08/01 A2994 RMK A01 T00770011  RH  063%=      5-min Rain = 0
KLE1 051042Z 30010KT 08/01 A2994 RMK A01 T00780011  RH  063%=      5-min Rain = 0
KLE1 051043Z 30011KT 08/01 A2994 RMK A01 T00770011  RH  063%=      5-min Rain = 0
KLE1 051044Z 31010KT 08/01 A2994 RMK A01 T00770012  RH  063%=      5-min Rain = 0
KLE1 051045Z 30010KT 08/01 A2994 RMK A01 T00770011  RH  063%=      5-min Rain = 0
KLE1 051046Z 31011KT 08/01 A2994 RMK A01 T00770011  RH  063%=      5-min Rain = 0
KLE1 051047Z 31010KT 08/01 A2994 RMK A01 T00770013  RH  064%=      5-min Rain = 0
KLE1 051048Z 31009KT 08/01 A2995 RMK A01 T00770012  RH  063%=      5-min Rain = 0
KLE1 051049Z 31009KT 08/01 A2995 RMK A01 T00770012  RH  063%=      5-min Rain = 0
KLE1 051050Z 30009KT 08/01 A2995 RMK A01 T00780013  RH  063%=      5-min Rain = 0
KLE1 051051Z 30010KT 08/01 A2995 RMK A01 T00770012  RH  063%=      5-min Rain = 0
KLE1 051052Z 30010KT 08/01 A2995 RMK A01 T00780013  RH  064%=      5-min Rain = 0
KLE1 051053Z 30008KT 08/01 A2995 RMK A01 T00760012  RH  064%=      5-min Rain = 0
KLE1 051054Z 30009KT 08/01 A2995 RMK A01 T00750011  RH  064%=      5-min Rain = 0
KLE1 051055Z 30009KT 07/01 A2995 RMK A01 T00740012  RH  064%=      5-min Rain = 0
KLE1 051056Z 30008KT 07/01 A2995 RMK A01 T00740012  RH  065%=      5-min Rain = 0
KLE1 051057Z 30009KT 07/01 A2995 RMK A01 T00740012  RH  065%=      5-min Rain = 0
KLE1 051058Z 29008KT 07/01 A2995 RMK A01 T00740013  RH  065%=      5-min Rain = 0
KLE1 051059Z 29008KT 08/01 A2995 RMK A01 T00750012  RH  065%=      5-min Rain = 0
KLE1 051100Z 29009KT 07/01 A2995 RMK A01 T00740011  RH  065%=      5-min Rain = 0
KLE1 051101Z 29010KT 07/01 A2995 RMK A01 T00720011  RH  065%=      5-min Rain = 0
KLE1 051102Z 29009KT 07/01 A2995 RMK A01 T00710011  RH  065%=      5-min Rain = 0
KLE1 051103Z 29009KT 07/01 A2995 RMK A01 T00700011  RH  066%=      5-min Rain = 0
KLE1 051104Z 29009KT 07/01 A2995 RMK A01 T00700011  RH  066%=      5-min Rain = 0
KLE1 051105Z 30008KT 07/01 A2995 RMK A01 T00690010  RH  066%=      5-min Rain = 0
KLE1 051106Z 30008KT 07/01 A2995 RMK A01 T00680010  RH  067%=      5-min Rain = 0
KLE1 051107Z 29008KT 07/01 A2995 RMK A01 T00660009  RH  067%=      5-min Rain = 0
KLE1 051108Z 29007KT 07/01 A2995 RMK A01 T00650008  RH  067%=      5-min Rain = 0
KLE1 051109Z 29008KT 06/01 A2995 RMK A01 T00630007  RH  067%=      5-min Rain = 0
KLE1 051110Z 29009KT 06/01 A2995 RMK A01 T00620008  RH  068%=      5-min Rain = 0
KLE1 051111Z 28009KT 06/01 A2995 RMK A01 T00620008  RH  068%=      5-min Rain = 0
KLE1 051112Z 29009KT 06/01 A2995 RMK A01 T00620008  RH  068%=      5-min Rain = 0
KLE1 051113Z 29008KT 06/01 A2995 RMK A01 T00630009  RH  068%=      5-min Rain = 0
KLE1 051114Z 29010KT 06/01 A2995 RMK A01 T00630009  RH  068%=      5-min Rain = 0
KLE1 051115Z 29009KT 06/01 A2995 RMK A01 T00640010  RH  068%=      5-min Rain = 0
KLE1 051116Z 29009KT 06/01 A2995 RMK A01 T00640009  RH  068%=      5-min Rain = 0
KLE1 051117Z 29009KT 06/01 A2995 RMK A01 T00640011  RH  069%=      5-min Rain = 0
KLE1 051118Z 29009KT 07/01 A2995 RMK A01 T00650013  RH  069%=      5-min Rain = 0
KLE1 051119Z 29009KT 07/01 A2996 RMK A01 T00660013  RH  069%=      5-min Rain = 0
KLE1 051120Z 30009KT 07/01 A2996 RMK A01 T00660013  RH  069%=      5-min Rain = 0
KLE1 051121Z 29008KT 07/01 A2996 RMK A01 T00660013  RH  069%=      5-min Rain = 0
KLE1 051122Z 30008KT 07/01 A2996 RMK A01 T00660013  RH  069%=      5-min Rain = 0
KLE1 051123Z 29008KT 07/02 A2996 RMK A01 T00660015  RH  070%=      5-min Rain = 0
KLE1 051124Z 29008KT 07/02 A2996 RMK A01 T00670015  RH  070%=      5-min Rain = 0
KLE1 051125Z 29008KT 07/02 A2996 RMK A01 T00670015  RH  070%=      5-min Rain = 0
KLE1 051126Z 29009KT 07/02 A2996 RMK A01 T00670016  RH  070%=      5-min Rain = 0
KLE1 051127Z 29008KT 07/02 A2996 RMK A01 T00680018  RH  070%=      5-min Rain = 0
KLE1 051128Z 29008KT 07/02 A2996 RMK A01 T00700019  RH  070%=      5-min Rain = 0
KLE1 051129Z 30008KT 07/02 A2996 RMK A01 T00700018  RH  070%=      5-min Rain = 0
KLE1 051130Z 30010KT 07/02 A2996 RMK A01 T00700019  RH  070%=      5-min Rain = 0
KLE1 051131Z 30009KT 07/02 A2996 RMK A01 T00720021  RH  070%=      5-min Rain = 0
KLE1 051132Z 30009KT 07/02 A2996 RMK A01 T00730022  RH  070%=      5-min Rain = 0
KLE1 051133Z 29009KT 07/02 A2996 RMK A01 T00740021  RH  069%=      5-min Rain = 0
KLE1 051134Z 29010KT 07/02 A2996 RMK A01 T00720020  RH  069%=      5-min Rain = 0
KLE1 051135Z 29010KT 07/02 A2996 RMK A01 T00720021  RH  070%=      5-min Rain = 0
KLE1 051136Z 29010KT 07/02 A2996 RMK A01 T00720021  RH  070%=      5-min Rain = 0
KLE1 051137Z 29010KT 07/02 A2996 RMK A01 T00720021  RH  070%=      5-min Rain = 0
KLE1 051138Z 30011KT 07/02 A2996 RMK A01 T00720022  RH  070%=      5-min Rain = 0
KLE1 051139Z 30012KT 07/02 A2996 RMK A01 T00720023  RH  071%=      5-min Rain = 0
KLE1 051140Z 30012KT 07/02 A2996 RMK A01 T00740024  RH  071%=      5-min Rain = 0
KLE1 051141Z 31012KT 08/02 A2996 RMK A01 T00750024  RH  070%=      5-min Rain = 0
KLE1 051142Z 31012KT 08/03 A2996 RMK A01 T00750025  RH  070%=      5-min Rain = 0
KLE1 051143Z 31011KT 08/03 A2996 RMK A01 T00750025  RH  070%=      5-min Rain = 0
KLE1 051144Z 32012KT 08/02 A2996 RMK A01 T00750024  RH  070%=      5-min Rain = 0
KLE1 051145Z 31012KT 07/02 A2996 RMK A01 T00740024  RH  071%=      5-min Rain = 0
KLE1 051146Z 31013KT 07/03 A2996 RMK A01 T00740025  RH  072%=      5-min Rain = 0
KLE1 051147Z 31013KT 07/03 A2996 RMK A01 T00740026  RH  072%=      5-min Rain = 0
KLE1 051148Z 31013KT 08/03 A2996 RMK A01 T00750026  RH  071%=      5-min Rain = 0
KLE1 051149Z 31013KT 08/03 A2996 RMK A01 T00750026  RH  071%=      5-min Rain = 0
KLE1 051150Z 32013KT 08/03 A2996 RMK A01 T00750026  RH  071%=      5-min Rain = 0
KLE1 051151Z 31012KT 08/03 A2996 RMK A01 T00750026  RH  071%=      5-min Rain = 0
KLE1 051152Z 32012KT 07/03 A2996 RMK A01 T00730026  RH  072%=      5-min Rain = 0
KLE1 051153Z 31012KT 07/03 A2996 RMK A01 T00720025  RH  072%=      5-min Rain = 0
KLE1 051154Z 32011KT 07/03 A2996 RMK A01 T00720025  RH  072%=      5-min Rain = 0
KLE1 051155Z 32012KT 07/03 A2996 RMK A01 T00720026  RH  073%=      5-min Rain = 0
KLE1 051156Z 31010KT 07/03 A2996 RMK A01 T00710026  RH  073%=      5-min Rain = 0
KLE1 051157Z 31011KT 07/03 A2996 RMK A01 T00710025  RH  073%=      5-min Rain = 0
KLE1 051158Z 32011KT 07/03 A2996 RMK A01 T00700025  RH  073%=      5-min Rain = 0
KLE1 051159Z 32012KT 07/03 A2996 RMK A01 T00700026  RH  073%=      5-min Rain = 0
KLE1 051200Z 32011KT 07/03 A2996 RMK A01 T00710027  RH  073%=      5-min Rain = 0
KLE1 051201Z 32012KT 07/03 A2996 RMK A01 T00710026  RH  073%=      5-min Rain = 0
KLE1 051202Z 32012KT 07/03 A2996 RMK A01 T00710027  RH  073%=      5-min Rain = 0
KLE1 051203Z 32011KT 07/03 A2996 RMK A01 T00710027  RH  073%=      5-min Rain = 0
KLE1 051204Z 32011KT 07/03 A2996 RMK A01 T00720027  RH  073%=      5-min Rain = 0
KLE1 051205Z 32012KT 07/03 A2996 RMK A01 T00710027  RH  073%=      5-min Rain = 0
KLE1 051206Z 32013KT 07/03 A2996 RMK A01 T00730028  RH  074%=      5-min Rain = 0
KLE1 051207Z 32014KT 07/03 A2996 RMK A01 T00730029  RH  073%=      5-min Rain = 0
KLE1 051208Z 32013KT 07/03 A2996 RMK A01 T00740029  RH  073%=      5-min Rain = 0
KLE1 051209Z 32013KT 08/03 A2996 RMK A01 T00750029  RH  073%=      5-min Rain = 0
KLE1 051210Z 32014KT 08/03 A2996 RMK A01 T00750030  RH  073%=      5-min Rain = 0
KLE1 051211Z 32014KT 08/03 A2997 RMK A01 T00760030  RH  073%=      5-min Rain = 0
KLE1 051212Z 32013KT 08/03 A2997 RMK A01 T00760030  RH  073%=      5-min Rain = 0
KLE1 051213Z 32015KT 08/03 A2997 RMK A01 T00760031  RH  073%=      5-min Rain = 0
KLE1 051214Z 32015KT 08/03 A2997 RMK A01 T00770032  RH  073%=      5-min Rain = 0
KLE1 051215Z 32014KT 08/03 A2997 RMK A01 T00780032  RH  073%=      5-min Rain = 0
KLE1 051216Z 32014KT 08/03 A2997 RMK A01 T00790033  RH  073%=      5-min Rain = 0
KLE1 051217Z 32014KT 08/03 A2997 RMK A01 T00790033  RH  072%=      5-min Rain = 0
KLE1 051218Z 32012KT 08/03 A2997 RMK A01 T00800033  RH  072%=      5-min Rain = 0
KLE1 051219Z 32013KT 08/03 A2997 RMK A01 T00790032  RH  072%=      5-min Rain = 0
KLE1 051220Z 32013KT 08/03 A2997 RMK A01 T00790033  RH  073%=      5-min Rain = 0
KLE1 051221Z 32013KT 08/03 A2997 RMK A01 T00790033  RH  073%=      5-min Rain = 0
KLE1 051222Z 31012KT 08/03 A2997 RMK A01 T00780033  RH  073%=      5-min Rain = 0
KLE1 051223Z 31012KT 08/03 A2997 RMK A01 T00780033  RH  073%=      5-min Rain = 0
KLE1 051224Z 31013KT 08/03 A2997 RMK A01 T00770033  RH  073%=      5-min Rain = 0
KLE1 051225Z 31012KT 08/03 A2997 RMK A01 T00780034  RH  074%=      5-min Rain = 0
KLE1 051226Z 31011KT 08/03 A2997 RMK A01 T00780034  RH  074%=      5-min Rain = 0
KLE1 051227Z 31012KT 08/03 A2997 RMK A01 T00770033  RH  074%=      5-min Rain = 0
KLE1 051228Z 32012KT 08/03 A2997 RMK A01 T00770033  RH  074%=      5-min Rain = 0
KLE1 051229Z 32012KT 08/03 A2997 RMK A01 T00760034  RH  074%=      5-min Rain = 0
KLE1 051230Z 32012KT 08/03 A2997 RMK A01 T00760034  RH  075%=      5-min Rain = 0
KLE1 051231Z 32013KT 08/03 A2997 RMK A01 T00760034  RH  075%=      5-min Rain = 0
KLE1 051232Z 32012KT 08/04 A2997 RMK A01 T00760035  RH  075%=      5-min Rain = 0
KLE1 051233Z 32012KT 08/04 A2998 RMK A01 T00760035  RH  075%=      5-min Rain = 0
KLE1 051234Z 32013KT 08/04 A2998 RMK A01 T00760035  RH  075%=      5-min Rain = 0
KLE1 051235Z 32013KT 08/04 A2998 RMK A01 T00760035  RH  075%=      5-min Rain = 0
KLE1 051236Z 32013KT 08/04 A2998 RMK A01 T00760036  RH  076%=      5-min Rain = 0
KLE1 051237Z 32013KT 08/04 A2998 RMK A01 T00760036  RH  076%=      5-min Rain = 0
KLE1 051238Z 32013KT 08/04 A2998 RMK A01 T00760036  RH  076%=      5-min Rain = 0
KLE1 051239Z 32013KT 08/04 A2998 RMK A01 T00770036  RH  076%=      5-min Rain = 0
KLE1 051240Z 33013KT 08/04 A2998 RMK A01 T00770037  RH  076%=      5-min Rain = 0
KLE1 051241Z 32014KT 08/04 A2998 RMK A01 T00760036  RH  076%=      5-min Rain = 0
KLE1 051242Z 32014KT 08/04 A2998 RMK A01 T00760037  RH  076%=      5-min Rain = 0
KLE1 051243Z 32015KT 08/04 A2998 RMK A01 T00760037  RH  077%=      5-min Rain = 0
KLE1 051244Z 33014KT 08/04 A2999 RMK A01 T00760038  RH  077%=      5-min Rain = 0
KLE1 051245Z 33013KT 08/04 A2999 RMK A01 T00770038  RH  076%=      5-min Rain = 0
KLE1 051246Z 32013KT 08/04 A2999 RMK A01 T00760037  RH  076%=      5-min Rain = 0
KLE1 051247Z 32013KT 08/04 A2999 RMK A01 T00770038  RH  076%=      5-min Rain = 0
KLE1 051248Z 32013KT 08/04 A2999 RMK A01 T00760038  RH  077%=      5-min Rain = 0
KLE1 051249Z 32012KT 08/04 A2999 RMK A01 T00760038  RH  077%=      5-min Rain = 0
KLE1 051250Z 32011KT 08/04 A2999 RMK A01 T00760038  RH  077%=      5-min Rain = 0
KLE1 051251Z 32012KT 08/04 A30 RMK A01 T00760037  RH  077%=      5-min Rain = 0
KLE1 051252Z 32011KT 08/04 A30 RMK A01 T00760038  RH  077%=      5-min Rain = 0
KLE1 051253Z 32010KT 08/04 A30 RMK A01 T00770038  RH  077%=      5-min Rain = 0
KLE1 051254Z 32012KT 08/04 A30 RMK A01 T00770038  RH  077%=      5-min Rain = 0
KLE1 051255Z 32011KT 08/04 A30 RMK A01 T00760038  RH  077%=      5-min Rain = 0
KLE1 051256Z 32010KT 08/04 A30 RMK A01 T00770039  RH  077%=      5-min Rain = 0
KLE1 051257Z 32011KT 08/04 A30 RMK A01 T00760038  RH  077%=      5-min Rain = 0
KLE1 051258Z 32011KT 08/04 A30 RMK A01 T00760038  RH  077%=      5-min Rain = 0
KLE1 051259Z 32011KT 08/04 A30 RMK A01 T00760038  RH  077%=      5-min Rain = 0
KLE1 051300Z 32011KT 08/04 A3001 RMK A01 T00750038  RH  077%=      5-min Rain = 0
KLE1 051301Z 33012KT 07/04 A3001 RMK A01 T00740037  RH  077%=      5-min Rain = 0
KLE1 051302Z 33012KT 07/04 A3001 RMK A01 T00740037  RH  077%=      5-min Rain = 0
KLE1 051303Z 33013KT 07/04 A3001 RMK A01 T00740037  RH  078%=      5-min Rain = 0
KLE1 051304Z 33013KT 07/04 A3001 RMK A01 T00740038  RH  078%=      5-min Rain = 0
KLE1 051305Z 33013KT 08/04 A3001 RMK A01 T00750038  RH  077%=      5-min Rain = 0
KLE1 051306Z 33014KT 08/04 A3001 RMK A01 T00750038  RH  077%=      5-min Rain = 0
KLE1 051307Z 33014KT 08/04 A3001 RMK A01 T00750038  RH  077%=      5-min Rain = 0
KLE1 051308Z 33012KT 08/04 A3001 RMK A01 T00750038  RH  077%=      5-min Rain = 0
KLE1 051309Z 33013KT 08/04 A3001 RMK A01 T00750038  RH  077%=      5-min Rain = 0
KLE1 051310Z 33013KT 07/04 A3001 RMK A01 T00740037  RH  077%=      5-min Rain = 0
KLE1 051311Z 34013KT 07/04 A3001 RMK A01 T00740038  RH  078%=      5-min Rain = 0
KLE1 051312Z 34013KT 07/04 A3001 RMK A01 T00740038  RH  077%=      5-min Rain = 0
KLE1 051313Z 34013KT 07/04 A3001 RMK A01 T00740037  RH  077%=      5-min Rain = 0
KLE1 051314Z 34014KT 07/04 A3001 RMK A01 T00740038  RH  077%=      5-min Rain = 0
KLE1 051315Z 34013KT 07/04 A3001 RMK A01 T00740038  RH  077%=      5-min Rain = 0
KLE1 051316Z 33014KT 07/04 A3001 RMK A01 T00740037  RH  077%=      5-min Rain = 0
KLE1 051317Z 34016KT 07/04 A3001 RMK A01 T00740038  RH  078%=      5-min Rain = 0
KLE1 051318Z 34015KT 08/04 A3001 RMK A01 T00750038  RH  077%=      5-min Rain = 0
KLE1 051319Z 34015KT 08/04 A3001 RMK A01 T00760038  RH  077%=      5-min Rain = 0
KLE1 051320Z 34016KT 08/04 A3001 RMK A01 T00760038  RH  077%=      5-min Rain = 0
KLE1 051321Z 34017KT 08/04 A3001 RMK A01 T00760038  RH  077%=      5-min Rain = 0
KLE1 051322Z 34016KT 08/04 A3002 RMK A01 T00760037  RH  076%=      5-min Rain = 0
KLE1 051323Z 34016KT 08/04 A3002 RMK A01 T00760038  RH  076%=      5-min Rain = 0
KLE1 051324Z 34017KT 08/04 A3002 RMK A01 T00770038  RH  076%=      5-min Rain = 0
KLE1 051325Z 34016KT 08/04 A3002 RMK A01 T00770038  RH  076%=      5-min Rain = 0
KLE1 051326Z 34016KT 08/04 A3002 RMK A01 T00770038  RH  076%=      5-min Rain = 0
KLE1 051327Z 34015KT 08/04 A3002 RMK A01 T00770037  RH  076%=      5-min Rain = 0
KLE1 051328Z 34016KT 08/04 A3002 RMK A01 T00770037  RH  076%=      5-min Rain = 0
KLE1 051329Z 34015KT 08/04 A3002 RMK A01 T00770037  RH  076%=      5-min Rain = 0
KLE1 051330Z 34014KT 08/04 A3002 RMK A01 T00770037  RH  076%=      5-min Rain = 0
KLE1 051331Z 34015KT 08/04 A3002 RMK A01 T00770037  RH  076%=      5-min Rain = 0
KLE1 051332Z 34014KT 08/04 A3002 RMK A01 T00770037  RH  076%=      5-min Rain = 0
KLE1 051333Z 34015KT 08/04 A3002 RMK A01 T00770037  RH  076%=      5-min Rain = 0
KLE1 051334Z 34014KT 08/04 A3002 RMK A01 T00770037  RH  076%=      5-min Rain = 0
KLE1 051335Z 34016KT 08/04 A3002 RMK A01 T00770037  RH  076%=      5-min Rain = 0
KLE1 051336Z 34014KT 08/04 A3003 RMK A01 T00780037  RH  075%=      5-min Rain = 0
KLE1 051337Z 35016KT 08/04 A3003 RMK A01 T00770037  RH  075%=      5-min Rain = 0
KLE1 051338Z 34014KT 08/04 A3003 RMK A01 T00770036  RH  075%=      5-min Rain = 0
KLE1 051339Z 35014KT 08/04 A3003 RMK A01 T00770036  RH  075%=      5-min Rain = 0
KLE1 051340Z 34012KT 08/04 A3003 RMK A01 T00780037  RH  075%=      5-min Rain = 0
KLE1 051341Z 34012KT 08/04 A3003 RMK A01 T00780036  RH  075%=      5-min Rain = 0
KLE1 051342Z 35011KT 08/04 A3003 RMK A01 T00780037  RH  075%=      5-min Rain = 0
KLE1 051343Z 35011KT 08/04 A3003 RMK A01 T00780037  RH  075%=      5-min Rain = 0
KLE1 051344Z 34014KT 08/04 A3003 RMK A01 T00780037  RH  075%=      5-min Rain = 0
KLE1 051345Z 34013KT 08/04 A3003 RMK A01 T00790038  RH  075%=      5-min Rain = 0
KLE1 051346Z 34013KT 08/04 A3003 RMK A01 T00790037  RH  075%=      5-min Rain = 0
KLE1 051347Z 34012KT 08/04 A3003 RMK A01 T00790037  RH  075%=      5-min Rain = 0
KLE1 051348Z 34013KT 08/04 A3004 RMK A01 T00790037  RH  075%=      5-min Rain = 0
KLE1 051349Z 34012KT 08/04 A3004 RMK A01 T00790037  RH  075%=      5-min Rain = 0
KLE1 051350Z 34012KT 08/04 A3004 RMK A01 T00790037  RH  075%=      5-min Rain = 0
KLE1 051351Z 35014KT 08/04 A3004 RMK A01 T00800038  RH  074%=      5-min Rain = 0
KLE1 051352Z 35014KT 08/04 A3004 RMK A01 T00810038  RH  074%=      5-min Rain = 0
KLE1 051353Z 35014KT 08/04 A3004 RMK A01 T00820038  RH  074%=      5-min Rain = 0
KLE1 051354Z 34013G18KT 08/04 A3004 RMK A01 T00830039  RH  074%=      5-min Rain = 0
KLE1 051355Z 34014KT 08/04 A3004 RMK A01 T00830038  RH  073%=      5-min Rain = 0
KLE1 051356Z 34012KT 08/04 A3004 RMK A01 T00840039  RH  073%=      5-min Rain = 0
KLE1 051357Z 34013KT 08/04 A3005 RMK A01 T00840039  RH  073%=      5-min Rain = 0
KLE1 051358Z 34013KT 08/04 A3005 RMK A01 T00840039  RH  073%=      5-min Rain = 0
KLE1 051359Z 34012KT 08/04 A3005 RMK A01 T00840039  RH  073%=      5-min Rain = 0
KLE1 051400Z 33013KT 08/04 A3005 RMK A01 T00840039  RH  073%=      5-min Rain = 0
KLE1 051401Z 33013KT 08/04 A3005 RMK A01 T00840039  RH  073%=      5-min Rain = 0
KLE1 051402Z 33014KT 08/04 A3005 RMK A01 T00840039  RH  073%=      5-min Rain = 0
KLE1 051403Z 33013KT 09/04 A3005 RMK A01 T00850039  RH  073%=      5-min Rain = 0
KLE1 051404Z 34017KT 09/04 A3005 RMK A01 T00850039  RH  073%=      5-min Rain = 0
KLE1 051405Z 34015KT 09/04 A3005 RMK A01 T00850039  RH  073%=      5-min Rain = 0
KLE1 051406Z 34014KT 09/04 A3006 RMK A01 T00860040  RH  073%=      5-min Rain = 0
KLE1 051407Z 34017KT 09/04 A3006 RMK A01 T00860039  RH  072%=      5-min Rain = 0
KLE1 051408Z 34014KT 09/04 A3006 RMK A01 T00860039  RH  072%=      5-min Rain = 0
KLE1 051409Z 34014KT 09/04 A3006 RMK A01 T00860039  RH  072%=      5-min Rain = 0
KLE1 051410Z 34015G20KT 09/04 A3006 RMK A01 T00870039  RH  072%=      5-min Rain = 0
KLE1 051411Z 33013KT 09/04 A3006 RMK A01 T00870039  RH  072%=      5-min Rain = 0
KLE1 051412Z 33015KT 09/04 A3006 RMK A01 T00870040  RH  072%=      5-min Rain = 0
KLE1 051413Z 34015KT 09/04 A3006 RMK A01 T00880039  RH  072%=      5-min Rain = 0
KLE1 051414Z 34016KT 09/04 A3006 RMK A01 T00880039  RH  071%=      5-min Rain = 0
KLE1 051415Z 34018KT 09/04 A3006 RMK A01 T00880039  RH  071%=      5-min Rain = 0
KLE1 051416Z 34016KT 09/04 A3006 RMK A01 T00880038  RH  071%=      5-min Rain = 0
KLE1 051417Z 34016KT 09/04 A3006 RMK A01 T00890039  RH  071%=      5-min Rain = 0
KLE1 051418Z 34017KT 09/04 A3007 RMK A01 T00890039  RH  071%=      5-min Rain = 0
KLE1 051419Z 34016KT 09/04 A3007 RMK A01 T00900039  RH  070%=      5-min Rain = 0
KLE1 051420Z 34017KT 09/04 A3007 RMK A01 T00910039  RH  070%=      5-min Rain = 0
KLE1 051421Z 34017KT 09/04 A3007 RMK A01 T00910038  RH  070%=      5-min Rain = 0
KLE1 051422Z 34017KT 09/04 A3007 RMK A01 T00910038  RH  070%=      5-min Rain = 0
KLE1 051423Z 34016KT 09/04 A3007 RMK A01 T00920039  RH  069%=      5-min Rain = 0
KLE1 051424Z 34015KT 09/04 A3007 RMK A01 T00920038  RH  069%=      5-min Rain = 0
KLE1 051425Z 34017KT 09/04 A3007 RMK A01 T00930039  RH  069%=      5-min Rain = 0
KLE1 051426Z 33014KT 09/04 A3007 RMK A01 T00940039  RH  069%=      5-min Rain = 0
KLE1 051427Z 33015KT 09/04 A3007 RMK A01 T00940039  RH  069%=      5-min Rain = 0
KLE1 051428Z 34015KT 09/04 A3007 RMK A01 T00940039  RH  068%=      5-min Rain = 0
KLE1 051429Z 34017KT 10/04 A3007 RMK A01 T00950039  RH  068%=      5-min Rain = 0
KLE1 051430Z 34015KT 10/04 A3007 RMK A01 T00950039  RH  068%=      5-min Rain = 0
KLE1 051431Z 34013KT 10/04 A3007 RMK A01 T00950039  RH  068%=      5-min Rain = 0
KLE1 051432Z 34014KT 10/04 A3008 RMK A01 T00960040  RH  068%=      5-min Rain = 0
KLE1 051433Z 34013KT 10/04 A3008 RMK A01 T00960040  RH  068%=      5-min Rain = 0
KLE1 051434Z 34013KT 10/04 A3008 RMK A01 T00980041  RH  068%=      5-min Rain = 0
KLE1 051435Z 34014KT 10/04 A3008 RMK A01 T00980041  RH  067%=      5-min Rain = 0
KLE1 051436Z 35014KT 10/04 A3008 RMK A01 T00990041  RH  067%=      5-min Rain = 0
KLE1 051437Z 35015KT 10/04 A3008 RMK A01 T01010043  RH  067%=      5-min Rain = 0
KLE1 051438Z 35015KT 10/04 A3008 RMK A01 T01030042  RH  066%=      5-min Rain = 0
KLE1 051439Z 35015KT 11/04 A3008 RMK A01 T01050043  RH  066%=      5-min Rain = 0
KLE1 051440Z 35016KT 11/04 A3008 RMK A01 T01070044  RH  065%=      5-min Rain = 0
KLE1 051441Z 35018KT 11/04 A3009 RMK A01 T01080044  RH  065%=      5-min Rain = 0
KLE1 051442Z 35017KT 11/04 A3009 RMK A01 T01080043  RH  064%=      5-min Rain = 0
KLE1 051443Z 35016KT 11/04 A3009 RMK A01 T01090044  RH  064%=      5-min Rain = 0
KLE1 051444Z 34016KT 11/05 A3009 RMK A01 T01110045  RH  064%=      5-min Rain = 0
KLE1 051445Z 34018KT 11/05 A3009 RMK A01 T01120046  RH  063%=      5-min Rain = 0
KLE1 051446Z 34016KT 11/05 A3009 RMK A01 T01140045  RH  063%=      5-min Rain = 0
KLE1 051447Z 35014KT 12/05 A3009 RMK A01 T01150046  RH  063%=      5-min Rain = 0
KLE1 051448Z 34019KT 12/05 A3009 RMK A01 T01160046  RH  062%=      5-min Rain = 0
KLE1 051449Z 34021KT 11/04 A3009 RMK A01 T01130043  RH  062%=      5-min Rain = 0
KLE1 051450Z 35021KT 11/04 A3009 RMK A01 T01110043  RH  063%=      5-min Rain = 0
KLE1 051451Z 35020KT 11/04 A301 RMK A01 T01100044  RH  064%=      5-min Rain = 0
KLE1 051452Z 35020KT 11/04 A301 RMK A01 T01110044  RH  063%=      5-min Rain = 0
KLE1 051453Z 35019KT 11/05 A301 RMK A01 T01110045  RH  064%=      5-min Rain = 0
KLE1 051454Z 35022KT 11/05 A301 RMK A01 T01120046  RH  064%=      5-min Rain = 0
KLE1 051455Z 35021KT 11/05 A301 RMK A01 T01120046  RH  064%=      5-min Rain = 0
KLE1 051456Z 35020G25KT 11/05 A301 RMK A01 T01110046  RH  064%=      5-min Rain = 0
KLE1 051457Z 35021KT 11/05 A301 RMK A01 T01100046  RH  065%=      5-min Rain = 0
KLE1 051458Z 36020KT 11/05 A301 RMK A01 T01090046  RH  065%=      5-min Rain = 0
KLE1 051459Z 00018KT 11/05 A301 RMK A01 T01080046  RH  066%=      5-min Rain = 0
KLE1 051500Z 35015KT 11/05 A301 RMK A01 T01070046  RH  066%=      5-min Rain = 0
KLE1 051501Z 36016KT 11/05 A301 RMK A01 T01080046  RH  066%=      5-min Rain = 0
KLE1 051502Z 35017KT 11/05 A301 RMK A01 T01090047  RH  066%=      5-min Rain = 0
KLE1 051503Z 35020KT 11/05 A301 RMK A01 T01100048  RH  066%=      5-min Rain = 0
KLE1 051504Z 36021KT 11/05 A301 RMK A01 T01110049  RH  065%=      5-min Rain = 0
KLE1 051505Z 36021G26KT 11/05 A3011 RMK A01 T01110048  RH  065%=      5-min Rain = 0
KLE1 051506Z 36019KT 11/05 A3011 RMK A01 T01110049  RH  066%=      5-min Rain = 0
KLE1 051507Z 35020KT 11/05 A3011 RMK A01 T01100049  RH  066%=      5-min Rain = 0
KLE1 051508Z 36017G22KT 11/05 A3011 RMK A01 T01100049  RH  066%=      5-min Rain = 0
KLE1 051509Z 36018KT 11/05 A3011 RMK A01 T01090049  RH  066%=      5-min Rain = 0
KLE1 051510Z 36018KT 11/05 A3011 RMK A01 T01090049  RH  066%=      5-min Rain = 0
KLE1 051511Z 36017KT 11/05 A3011 RMK A01 T01080049  RH  067%=      5-min Rain = 0
KLE1 051512Z 36020KT 11/05 A3012 RMK A01 T01080050  RH  067%=      5-min Rain = 0
KLE1 051513Z 00018G24KT 11/05 A3012 RMK A01 T01070050  RH  068%=      5-min Rain = 0
KLE1 051514Z 36018KT 11/05 A3012 RMK A01 T01070051  RH  068%=      5-min Rain = 0
KLE1 051515Z 35018G24KT 11/05 A3012 RMK A01 T01070051  RH  069%=      5-min Rain = 0
KLE1 051516Z 36019G24KT 11/05 A3012 RMK A01 T01060052  RH  069%=      5-min Rain = 0
KLE1 051517Z 00018KT 11/05 A3012 RMK A01 T01060053  RH  070%=      5-min Rain = 0
KLE1 051518Z 36019KT 11/05 A3012 RMK A01 T01050053  RH  070%=      5-min Rain = 0
KLE1 051519Z 35018G23KT 11/05 A3012 RMK A01 T01050054  RH  070%=      5-min Rain = 0
KLE1 051520Z 35020KT 11/05 A3012 RMK A01 T01050054  RH  071%=      5-min Rain = 0
KLE1 051521Z 35020KT 11/05 A3012 RMK A01 T01050054  RH  071%=      5-min Rain = 0
KLE1 051522Z 35017KT 11/06 A3012 RMK A01 T01050055  RH  071%=      5-min Rain = 0
KLE1 051523Z 35019KT 11/06 A3012 RMK A01 T01050055  RH  071%=      5-min Rain = 0
KLE1 051524Z 35020KT 11/06 A3012 RMK A01 T01050055  RH  071%=      5-min Rain = 0
KLE1 051525Z 35020KT 11/06 A3012 RMK A01 T01050056  RH  072%=      5-min Rain = 0
KLE1 051526Z 36020G25KT 11/06 A3012 RMK A01 T01050057  RH  072%=      5-min Rain = 0
KLE1 051527Z 36018KT 11/06 A3012 RMK A01 T01060058  RH  072%=      5-min Rain = 0
KLE1 051528Z 35017KT 11/06 A3012 RMK A01 T01060057  RH  072%=      5-min Rain = 0
KLE1 051529Z 35019KT 11/06 A3012 RMK A01 T01060058  RH  072%=      5-min Rain = 0
KLE1 051530Z 36017KT 11/06 A3012 RMK A01 T01060058  RH  072%=      5-min Rain = 0
KLE1 051531Z 36019KT 11/06 A3012 RMK A01 T01060058  RH  072%=      5-min Rain = 0
KLE1 051532Z 35020G25KT 11/06 A3012 RMK A01 T01070059  RH  072%=      5-min Rain = 0
KLE1 051533Z 35019KT 11/06 A3012 RMK A01 T01070059  RH  073%=      5-min Rain = 0
KLE1 051534Z 35018G23KT 11/06 A3012 RMK A01 T01070060  RH  073%=      5-min Rain = 0
KLE1 051535Z 35021KT 11/06 A3012 RMK A01 T01080060  RH  073%=      5-min Rain = 0
KLE1 051536Z 35021KT 11/06 A3012 RMK A01 T01080061  RH  073%=      5-min Rain = 0
KLE1 051537Z 35022KT 11/06 A3012 RMK A01 T01080061  RH  073%=      5-min Rain = 0
KLE1 051538Z 35024KT 11/06 A3012 RMK A01 T01080061  RH  073%=      5-min Rain = 0
KLE1 051539Z 35021KT 11/06 A3012 RMK A01 T01080061  RH  073%=      5-min Rain = 0
KLE1 051540Z 35018KT 11/06 A3012 RMK A01 T01080062  RH  073%=      5-min Rain = 0
KLE1 051541Z 35016KT 11/06 A3012 RMK A01 T01090062  RH  073%=      5-min Rain = 0
KLE1 051542Z 35016KT 11/06 A3012 RMK A01 T01110063  RH  073%=      5-min Rain = 0
KLE1 051543Z 35018KT 11/06 A3012 RMK A01 T01110063  RH  072%=      5-min Rain = 0
KLE1 051544Z 35021KT 11/06 A3012 RMK A01 T01110063  RH  072%=      5-min Rain = 0
KLE1 051545Z 36019KT 11/06 A3012 RMK A01 T01110063  RH  072%=      5-min Rain = 0
KLE1 051546Z 35020KT 11/06 A3012 RMK A01 T01110063  RH  072%=      5-min Rain = 0
KLE1 051547Z 35017KT 11/06 A3012 RMK A01 T01110063  RH  072%=      5-min Rain = 0
KLE1 051548Z 35018KT 11/06 A3012 RMK A01 T01120064  RH  072%=      5-min Rain = 0
KLE1 051549Z 35019G26KT 11/06 A3012 RMK A01 T01120064  RH  072%=      5-min Rain = 0
KLE1 051550Z 35021KT 11/06 A3012 RMK A01 T01120063  RH  072%=      5-min Rain = 0
KLE1 051551Z 34023KT 11/06 A3012 RMK A01 T01110063  RH  072%=      5-min Rain = 0
KLE1 051552Z 34021KT 11/06 A3012 RMK A01 T01100063  RH  073%=      5-min Rain = 0
KLE1 051553Z 35020KT 11/06 A3013 RMK A01 T01100063  RH  073%=      5-min Rain = 0
KLE1 051554Z 34021KT 11/06 A3013 RMK A01 T01100064  RH  073%=      5-min Rain = 0
KLE1 051555Z 35021KT 11/06 A3012 RMK A01 T01110064  RH  073%=      5-min Rain = 0
KLE1 051556Z 35022KT 11/06 A3012 RMK A01 T01110064  RH  073%=      5-min Rain = 0
KLE1 051557Z 35019KT 11/07 A3012 RMK A01 T01120065  RH  073%=      5-min Rain = 0
KLE1 051558Z 35017G24KT 12/07 A3012 RMK A01 T01150067  RH  072%=      5-min Rain = 0
KLE1 051559Z 34022KT 12/07 A3012 RMK A01 T01180068  RH  071%=      5-min Rain = 0
KLE1 051600Z 34021KT 12/07 A3012 RMK A01 T01190067  RH  070%=      5-min Rain = 0
KLE1 051601Z 34021KT 12/07 A3013 RMK A01 T01210068  RH  070%=      5-min Rain = 0
KLE1 051602Z 34020G25KT 12/07 A3013 RMK A01 T01210066  RH  069%=      5-min Rain = 0
KLE1 051603Z 35022KT 12/07 A3013 RMK A01 T01200066  RH  069%=      5-min Rain = 0
KLE1 051604Z 35023KT 12/07 A3013 RMK A01 T01190065  RH  069%=      5-min Rain = 0
KLE1 051605Z 35022KT 12/06 A3013 RMK A01 T01170064  RH  070%=      5-min Rain = 0
KLE1 051606Z 34020KT 12/07 A3013 RMK A01 T01170065  RH  070%=      5-min Rain = 0
KLE1 051607Z 34021G26KT 12/07 A3013 RMK A01 T01170065  RH  070%=      5-min Rain = 0
KLE1 051608Z 34018KT 12/07 A3013 RMK A01 T01170065  RH  070%=      5-min Rain = 0
KLE1 051609Z 34020KT 12/07 A3013 RMK A01 T01180065  RH  070%=      5-min Rain = 0
KLE1 051610Z 34021KT 12/07 A3013 RMK A01 T01180065  RH  070%=      5-min Rain = 0
KLE1 051611Z 35019KT 12/07 A3013 RMK A01 T01180065  RH  070%=      5-min Rain = 0
KLE1 051612Z 35017KT 12/07 A3013 RMK A01 T01180066  RH  070%=      5-min Rain = 0
KLE1 051613Z 35018KT 12/07 A3013 RMK A01 T01200066  RH  070%=      5-min Rain = 0
KLE1 051614Z 34020KT 12/07 A3013 RMK A01 T01200066  RH  069%=      5-min Rain = 0
KLE1 051615Z 34018KT 12/07 A3013 RMK A01 T01190065  RH  070%=      5-min Rain = 0
KLE1 051616Z 34018KT 12/07 A3013 RMK A01 T01190066  RH  070%=      5-min Rain = 0
KLE1 051617Z 34021KT 12/07 A3013 RMK A01 T01190066  RH  070%=      5-min Rain = 0
KLE1 051618Z 34020KT 12/07 A3013 RMK A01 T01190065  RH  070%=      5-min Rain = 0
KLE1 051619Z 36022KT 12/07 A3013 RMK A01 T01180065  RH  070%=      5-min Rain = 0
KLE1 051620Z 34021KT 12/06 A3013 RMK A01 T01170064  RH  070%=      5-min Rain = 0
KLE1 051621Z 34020KT 12/07 A3014 RMK A01 T01170065  RH  070%=      5-min Rain = 0
KLE1 051622Z 35019KT 12/06 A3014 RMK A01 T01160064  RH  071%=      5-min Rain = 0
KLE1 051623Z 35023KT 12/07 A3014 RMK A01 T01170065  RH  070%=      5-min Rain = 0
KLE1 051624Z 35022KT 12/06 A3014 RMK A01 T01170064  RH  070%=      5-min Rain = 0
KLE1 051625Z 35024G30KT 12/06 A3014 RMK A01 T01170063  RH  069%=      5-min Rain = 0
KLE1 051626Z 35023KT 12/06 A3014 RMK A01 T01180062  RH  068%=      5-min Rain = 0
KLE1 051627Z 34021G26KT 12/06 A3014 RMK A01 T01190061  RH  067%=      5-min Rain = 0
KLE1 051628Z 34015KT 12/06 A3014 RMK A01 T01200062  RH  067%=      5-min Rain = 0
KLE1 051629Z 35018KT 12/06 A3014 RMK A01 T01210062  RH  067%=      5-min Rain = 0
KLE1 051630Z 35022G28KT 12/06 A3014 RMK A01 T01220063  RH  067%=      5-min Rain = 0
KLE1 051631Z 34027G32KT 12/06 A3014 RMK A01 T01220060  RH  066%=      5-min Rain = 0
KLE1 051632Z 34026KT 12/06 A3014 RMK A01 T01210059  RH  066%=      5-min Rain = 0
KLE1 051633Z 34026G31KT 12/06 A3014 RMK A01 T01200058  RH  066%=      5-min Rain = 0
KLE1 051634Z 35024KT 12/06 A3014 RMK A01 T01210058  RH  065%=      5-min Rain = 0
KLE1 051635Z 35021G29KT 12/06 A3014 RMK A01 T01220058  RH  065%=      5-min Rain = 0
KLE1 051636Z 35029KT 12/06 A3014 RMK A01 T01240057  RH  064%=      5-min Rain = 0
KLE1 051637Z 36027KT 12/06 A3014 RMK A01 T01240055  RH  063%=      5-min Rain = 0
KLE1 051638Z 36029KT 12/06 A3014 RMK A01 T01240055  RH  063%=      5-min Rain = 0
KLE1 051639Z 35028G34KT 13/05 A3015 RMK A01 T01260054  RH  062%=      5-min Rain = 0
KLE1 051640Z 35025G30KT 13/05 A3015 RMK A01 T01260053  RH  061%=      5-min Rain = 0
KLE1 051641Z 00025KT 13/05 A3015 RMK A01 T01250052  RH  061%=      5-min Rain = 0
KLE1 051642Z 35025G31KT 12/05 A3015 RMK A01 T01220052  RH  062%=      5-min Rain = 0
KLE1 051643Z 36033KT 12/05 A3015 RMK A01 T01200052  RH  063%=      5-min Rain = 0
KLE1 051644Z 00030G35KT 12/05 A3015 RMK A01 T01150050  RH  064%=      5-min Rain = 0
KLE1 051645Z 00030G36KT 11/05 A3015 RMK A01 T01130052  RH  066%=      5-min Rain = 0
KLE1 051646Z 00026G32KT 11/05 A3015 RMK A01 T01120052  RH  066%=      5-min Rain = 0
KLE1 051647Z 00029KT 11/05 A3015 RMK A01 T01120052  RH  067%=      5-min Rain = 0
KLE1 051648Z 00030G36KT 11/05 A3015 RMK A01 T01120052  RH  067%=      5-min Rain = 0
KLE1 051649Z 36025G30KT 11/05 A3016 RMK A01 T01120052  RH  067%=      5-min Rain = 0
KLE1 051650Z 36027G34KT 11/05 A3016 RMK A01 T01110053  RH  067%=      5-min Rain = 0
KLE1 051651Z 00031KT 11/05 A3016 RMK A01 T01120053  RH  067%=      5-min Rain = 0
KLE1 051652Z 00028G33KT 11/05 A3016 RMK A01 T01120053  RH  067%=      5-min Rain = 0
KLE1 051653Z 36031KT 11/06 A3016 RMK A01 T01120055  RH  068%=      5-min Rain = 0
KLE1 051654Z 36032KT 11/06 A3016 RMK A01 T01140056  RH  067%=      5-min Rain = 0
KLE1 051655Z 36027G32KT 12/06 A3016 RMK A01 T01160057  RH  067%=      5-min Rain = 0
KLE1 051656Z 00030G37KT 12/06 A3016 RMK A01 T01190057  RH  066%=      5-min Rain = 0
KLE1 051657Z 00027G32KT 12/06 A3016 RMK A01 T01200057  RH  065%=      5-min Rain = 0
KLE1 051658Z 01026G31KT 12/06 A3016 RMK A01 T01200056  RH  065%=      5-min Rain = 0
KLE1 051659Z 01022G28KT 12/06 A3016 RMK A01 T01190056  RH  065%=      5-min Rain = 0
KLE1 051700Z 00024KT 12/06 A3016 RMK A01 T01180056  RH  066%=      5-min Rain = 0
KLE1 051701Z 00028G34KT 12/06 A3016 RMK A01 T01180056  RH  066%=      5-min Rain = 0
KLE1 051702Z 00028KT 12/06 A3016 RMK A01 T01170055  RH  066%=      5-min Rain = 0
KLE1 051703Z 00026KT 12/06 A3016 RMK A01 T01160055  RH  066%=      5-min Rain = 0
KLE1 051704Z 01028KT 12/06 A3016 RMK A01 T01160055  RH  066%=      5-min Rain = 0
KLE1 051705Z 01028KT 12/06 A3016 RMK A01 T01160055  RH  066%=      5-min Rain = 0
KLE1 051706Z 01026KT 12/06 A3016 RMK A01 T01150056  RH  067%=      5-min Rain = 0
KLE1 051707Z 01025KT 12/06 A3017 RMK A01 T01150056  RH  067%=      5-min Rain = 0
KLE1 051708Z 01023G28KT 11/06 A3017 RMK A01 T01140056  RH  068%=      5-min Rain = 0
KLE1 051709Z 01022KT 11/06 A3017 RMK A01 T01140057  RH  068%=      5-min Rain = 0
KLE1 051710Z 01026G31KT 11/06 A3017 RMK A01 T01140056  RH  068%=      5-min Rain = 0
KLE1 051711Z 01025G31KT 11/06 A3017 RMK A01 T01110055  RH  068%=      5-min Rain = 0
KLE1 051712Z 01022KT 11/06 A3017 RMK A01 T01100055  RH  069%=      5-min Rain = 0
KLE1 051713Z 01023KT 11/06 A3017 RMK A01 T01100056  RH  069%=      5-min Rain = 0
KLE1 051714Z 01022KT 11/06 A3017 RMK A01 T01100057  RH  070%=      5-min Rain = 0
KLE1 051715Z 01018G24KT 11/06 A3018 RMK A01 T01110059  RH  070%=      5-min Rain = 0
KLE1 051716Z 01020KT 11/06 A3018 RMK A01 T01130058  RH  069%=      5-min Rain = 0
KLE1 051717Z 01018KT 11/06 A3017 RMK A01 T01130056  RH  068%=      5-min Rain = 0
KLE1 051718Z 02018G26KT 11/06 A3018 RMK A01 T01130058  RH  069%=      5-min Rain = 0
KLE1 051719Z 02023KT 11/06 A3017 RMK A01 T01140057  RH  068%=      5-min Rain = 0
KLE1 051720Z 02022G27KT 11/06 A3017 RMK A01 T01110055  RH  068%=      5-min Rain = 0
KLE1 051721Z 01020G26KT 11/06 A3018 RMK A01 T01100055  RH  069%=      5-min Rain = 0
KLE1 051722Z 02020KT 11/06 A3018 RMK A01 T01110058  RH  070%=      5-min Rain = 0
KLE1 051723Z 02018G24KT 12/06 A3018 RMK A01 T01160061  RH  069%=      5-min Rain = 0
KLE1 051724Z 01020KT 12/06 A3018 RMK A01 T01210061  RH  067%=      5-min Rain = 0
KLE1 051725Z 02023KT 12/06 A3018 RMK A01 T01230059  RH  065%=      5-min Rain = 0
KLE1 051726Z 02021KT 12/06 A3018 RMK A01 T01240058  RH  064%=      5-min Rain = 0
KLE1 051727Z 03020G25KT 13/06 A3018 RMK A01 T01260060  RH  064%=      5-min Rain = 0
KLE1 051728Z 02021KT 13/06 A3018 RMK A01 T01270056  RH  062%=      5-min Rain = 0
KLE1 051729Z 03021G26KT 13/06 A3018 RMK A01 T01250055  RH  062%=      5-min Rain = 0
KLE1 051730Z 03020KT 12/05 A3018 RMK A01 T01240054  RH  062%=      5-min Rain = 0
KLE1 051731Z 02018KT 12/05 A3018 RMK A01 T01240053  RH  062%=      5-min Rain = 0
KLE1 051732Z 01021G30KT 13/06 A3018 RMK A01 T01250055  RH  062%=      5-min Rain = 0
KLE1 051733Z 01018KT 13/05 A3018 RMK A01 T01250053  RH  061%=      5-min Rain = 0
KLE1 051734Z 01020G25KT 13/05 A3018 RMK A01 T01250052  RH  061%=      5-min Rain = 0
KLE1 051735Z 02021G26KT 12/05 A3018 RMK A01 T01240051  RH  061%=      5-min Rain = 0
KLE1 051736Z 02021KT 12/05 A3018 RMK A01 T01220050  RH  062%=      5-min Rain = 0
KLE1 051737Z 01020KT 12/05 A3018 RMK A01 T01210051  RH  062%=      5-min Rain = 0
KLE1 051738Z 01027KT 13/05 A3018 RMK A01 T01250052  RH  061%=      5-min Rain = 0
KLE1 051739Z 01028KT 13/05 A3019 RMK A01 T01270048  RH  059%=      5-min Rain = 0
KLE1 051740Z 02025G30KT 13/05 A3019 RMK A01 T01250045  RH  058%=      5-min Rain = 0
KLE1 051741Z 02025G30KT 13/05 A3018 RMK A01 T01270046  RH  058%=      5-min Rain = 0
KLE1 051742Z 02027G33KT 13/05 A3018 RMK A01 T01280045  RH  057%=      5-min Rain = 0
KLE1 051743Z 02027G32KT 13/05 A3018 RMK A01 T01300046  RH  057%=      5-min Rain = 0
KLE1 051744Z 02021KT 13/04 A3019 RMK A01 T01280043  RH  056%=      5-min Rain = 0
KLE1 051745Z 01025KT 13/05 A3019 RMK A01 T01270045  RH  057%=      5-min Rain = 0
KLE1 051746Z 01023KT 13/04 A3019 RMK A01 T01250043  RH  057%=      5-min Rain = 0
KLE1 051747Z 01023G28KT 12/04 A3019 RMK A01 T01230043  RH  058%=      5-min Rain = 0
KLE1 051748Z 01024G30KT 13/05 A3019 RMK A01 T01270046  RH  058%=      5-min Rain = 0
KLE1 051749Z 02023G28KT 13/05 A3019 RMK A01 T01310047  RH  057%=      5-min Rain = 0
KLE1 051750Z 01019G28KT 13/05 A3019 RMK A01 T01330048  RH  056%=      5-min Rain = 0
KLE1 051751Z 01023G28KT 14/05 A3019 RMK A01 T01370048  RH  055%=      5-min Rain = 0
KLE1 051752Z 01026KT 14/04 A3018 RMK A01 T01350043  RH  054%=      5-min Rain = 0
KLE1 051753Z 01022G27KT 13/04 A3019 RMK A01 T01320043  RH  055%=      5-min Rain = 0
KLE1 051754Z 01022G28KT 13/05 A3019 RMK A01 T01340046  RH  055%=      5-min Rain = 0
KLE1 051755Z 00022KT 14/05 A3019 RMK A01 T01360045  RH  054%=      5-min Rain = 0
KLE1 051756Z 01023G29KT 14/05 A3019 RMK A01 T01370046  RH  054%=      5-min Rain = 0
KLE1 051757Z 00025G30KT 14/04 A3019 RMK A01 T01380044  RH  053%=      5-min Rain = 0
KLE1 051758Z 02023KT 14/04 A3019 RMK A01 T01350043  RH  054%=      5-min Rain = 0
KLE1 051759Z 02023G29KT 14/05 A3019 RMK A01 T01350045  RH  054%=      5-min Rain = 0
KLE1 051800Z 02024KT 14/05 A3019 RMK A01 T01370045  RH  054%=      5-min Rain = 0
KLE1 051801Z 02023KT 14/04 A3019 RMK A01 T01350042  RH  053%=      5-min Rain = 0
KLE1 051802Z 02021G26KT 13/04 A3019 RMK A01 T01340042  RH  054%=      5-min Rain = 0
KLE1 051803Z 01024KT 13/04 A3019 RMK A01 T01340042  RH  054%=      5-min Rain = 0
KLE1 051804Z 02025G31KT 13/04 A3019 RMK A01 T01330041  RH  054%=      5-min Rain = 0
KLE1 051805Z 02027G32KT 13/04 A3019 RMK A01 T01320039  RH  053%=      5-min Rain = 0
KLE1 051806Z 02025G31KT 13/04 A3019 RMK A01 T01310039  RH  053%=      5-min Rain = 0
KLE1 051807Z 01025G30KT 13/04 A3019 RMK A01 T01340042  RH  053%=      5-min Rain = 0
KLE1 051808Z 02019KT 14/05 A3019 RMK A01 T01410045  RH  053%=      5-min Rain = 0
KLE1 051809Z 03022G30KT 14/05 A3019 RMK A01 T01440045  RH  051%=      5-min Rain = 0
KLE1 051810Z 02024KT 14/04 A3019 RMK A01 T01440041  RH  050%=      5-min Rain = 0
KLE1 051811Z 02022KT 14/04 A3019 RMK A01 T01400040  RH  051%=      5-min Rain = 0
KLE1 051812Z 02022G27KT 14/04 A3019 RMK A01 T01400041  RH  051%=      5-min Rain = 0
KLE1 051813Z 02028G34KT 14/04 A3019 RMK A01 T01380040  RH  052%=      5-min Rain = 0
KLE1 051814Z 02026G31KT 13/04 A3019 RMK A01 T01330040  RH  053%=      5-min Rain = 0
KLE1 051815Z 02024G29KT 13/04 A3019 RMK A01 T01300040  RH  054%=      5-min Rain = 0
KLE1 051816Z 02024KT 13/04 A3019 RMK A01 T01290041  RH  055%=      5-min Rain = 0
KLE1 051817Z 03024KT 13/04 A3019 RMK A01 T01270041  RH  056%=      5-min Rain = 0
KLE1 051818Z 02025KT 13/04 A3019 RMK A01 T01260042  RH  057%=      5-min Rain = 0
KLE1 051819Z 01022KT 13/04 A3019 RMK A01 T01250042  RH  057%=      5-min Rain = 0
KLE1 051820Z 02022KT 13/04 A3019 RMK A01 T01250044  RH  058%=      5-min Rain = 0
KLE1 051821Z 02019KT 13/04 A3019 RMK A01 T01250044  RH  058%=      5-min Rain = 0
KLE1 051822Z 01016KT 13/05 A302 RMK A01 T01260045  RH  058%=      5-min Rain = 0
KLE1 051823Z 01019G25KT 13/05 A302 RMK A01 T01290046  RH  057%=      5-min Rain = 0
KLE1 051824Z 01024KT 13/05 A302 RMK A01 T01340050  RH  057%=      5-min Rain = 0
KLE1 051825Z 02023KT 14/05 A302 RMK A01 T01380049  RH  055%=      5-min Rain = 0
KLE1 051826Z 02023KT 14/05 A3019 RMK A01 T01400049  RH  054%=      5-min Rain = 0
KLE1 051827Z 02020G25KT 14/05 A302 RMK A01 T01410049  RH  054%=      5-min Rain = 0
KLE1 051828Z 36027KT 15/05 A302 RMK A01 T01450048  RH  052%=      5-min Rain = 0
KLE1 051829Z 00027KT 14/04 A302 RMK A01 T01440044  RH  051%=      5-min Rain = 0
KLE1 051830Z 01026KT 14/04 A3019 RMK A01 T01410044  RH  052%=      5-min Rain = 0
KLE1 051831Z 01027G33KT 14/04 A302 RMK A01 T01380042  RH  052%=      5-min Rain = 0
KLE1 051832Z 01026KT 13/04 A302 RMK A01 T01330040  RH  053%=      5-min Rain = 0
KLE1 051833Z 01023KT 13/04 A302 RMK A01 T01300041  RH  055%=      5-min Rain = 0
KLE1 051834Z 01025KT 13/04 A302 RMK A01 T01300042  RH  055%=      5-min Rain = 0
KLE1 051835Z 01024KT 13/04 A302 RMK A01 T01280042  RH  056%=      5-min Rain = 0
KLE1 051836Z 01024G29KT 13/04 A302 RMK A01 T01270043  RH  057%=      5-min Rain = 0
KLE1 051837Z 02023KT 13/04 A302 RMK A01 T01260044  RH  057%=      5-min Rain = 0
KLE1 051838Z 01024KT 13/04 A302 RMK A01 T01250044  RH  058%=      5-min Rain = 0
KLE1 051839Z 00025KT 13/04 A302 RMK A01 T01250044  RH  058%=      5-min Rain = 0
KLE1 051840Z 01024KT 13/04 A302 RMK A01 T01260044  RH  058%=      5-min Rain = 0
KLE1 051841Z 01020KT 13/05 A302 RMK A01 T01260045  RH  058%=      5-min Rain = 0
KLE1 051842Z 02021KT 13/05 A302 RMK A01 T01280046  RH  057%=      5-min Rain = 0
KLE1 051843Z 02020G25KT 13/05 A302 RMK A01 T01280045  RH  057%=      5-min Rain = 0
KLE1 051844Z 02021KT 13/04 A302 RMK A01 T01270044  RH  057%=      5-min Rain = 0
KLE1 051845Z 02023KT 13/04 A302 RMK A01 T01260044  RH  057%=      5-min Rain = 0
KLE1 051846Z 03020G26KT 13/04 A302 RMK A01 T01260044  RH  058%=      5-min Rain = 0
KLE1 051847Z 02019KT 13/05 A302 RMK A01 T01250045  RH  058%=      5-min Rain = 0
KLE1 051848Z 01019G24KT 13/05 A302 RMK A01 T01270046  RH  058%=      5-min Rain = 0
KLE1 051849Z 01022KT 13/05 A302 RMK A01 T01270045  RH  057%=      5-min Rain = 0
KLE1 051850Z 01021KT 13/04 A302 RMK A01 T01270044  RH  057%=      5-min Rain = 0
KLE1 051851Z 01021KT 13/05 A302 RMK A01 T01270045  RH  057%=      5-min Rain = 0
KLE1 051852Z 01019KT 13/05 A302 RMK A01 T01270045  RH  057%=      5-min Rain = 0
KLE1 051853Z 02019KT 13/05 A302 RMK A01 T01280045  RH  057%=      5-min Rain = 0
KLE1 051854Z 02022KT 13/04 A302 RMK A01 T01270044  RH  057%=      5-min Rain = 0
KLE1 051855Z 01025G31KT 13/04 A302 RMK A01 T01250043  RH  057%=      5-min Rain = 0
KLE1 051856Z 02024KT 12/04 A302 RMK A01 T01240043  RH  058%=      5-min Rain = 0
KLE1 051857Z 01023KT 12/04 A302 RMK A01 T01220043  RH  058%=      5-min Rain = 0
KLE1 051858Z 02021KT 12/04 A302 RMK A01 T01210043  RH  059%=      5-min Rain = 0
KLE1 051859Z 02020KT 12/04 A302 RMK A01 T01210043  RH  059%=      5-min Rain = 0
KLE1 051900Z 02018KT 12/04 A302 RMK A01 T01200044  RH  059%=      5-min Rain = 0
KLE1 051901Z 01017KT 12/05 A302 RMK A01 T01210045  RH  059%=      5-min Rain = 0
KLE1 051902Z 01023G28KT 12/05 A302 RMK A01 T01220045  RH  059%=      5-min Rain = 0
KLE1 051903Z 01023KT 12/04 A302 RMK A01 T01210044  RH  059%=      5-min Rain = 0
KLE1 051904Z 01023G28KT 12/05 A302 RMK A01 T01200045  RH  060%=      5-min Rain = 0
KLE1 051905Z 01021KT 12/05 A302 RMK A01 T01200046  RH  060%=      5-min Rain = 0
KLE1 051906Z 01020KT 12/05 A302 RMK A01 T01200046  RH  061%=      5-min Rain = 0
KLE1 051907Z 01016KT 12/05 A302 RMK A01 T01210047  RH  060%=      5-min Rain = 0
KLE1 051908Z 01019KT 12/05 A302 RMK A01 T01230048  RH  060%=      5-min Rain = 0
KLE1 051909Z 01021KT 12/05 A302 RMK A01 T01240047  RH  059%=      5-min Rain = 0
KLE1 051910Z 02021KT 12/05 A302 RMK A01 T01230046  RH  059%=      5-min Rain = 0
KLE1 051911Z 02022KT 12/05 A302 RMK A01 T01220046  RH  060%=      5-min Rain = 0
KLE1 051912Z 01022KT 12/05 A302 RMK A01 T01220046  RH  060%=      5-min Rain = 0
KLE1 051913Z 01021KT 12/05 A302 RMK A01 T01210046  RH  060%=      5-min Rain = 0
KLE1 051914Z 01024G30KT 12/05 A302 RMK A01 T01210046  RH  060%=      5-min Rain = 0
KLE1 051915Z 02022KT 12/05 A302 RMK A01 T01200046  RH  060%=      5-min Rain = 0
KLE1 051916Z 02019KT 12/05 A302 RMK A01 T01200046  RH  061%=      5-min Rain = 0
KLE1 051917Z 01022KT 12/05 A302 RMK A01 T01210047  RH  060%=      5-min Rain = 0
KLE1 051918Z 01019KT 12/05 A302 RMK A01 T01220047  RH  060%=      5-min Rain = 0
KLE1 051919Z 02019G25KT 12/05 A302 RMK A01 T01220048  RH  060%=      5-min Rain = 0
KLE1 051920Z 02019KT 12/05 A302 RMK A01 T01230048  RH  060%=      5-min Rain = 0
KLE1 051921Z 03018G25KT 12/05 A302 RMK A01 T01230049  RH  061%=      5-min Rain = 0
KLE1 051922Z 03020G25KT 12/05 A302 RMK A01 T01240049  RH  060%=      5-min Rain = 0
KLE1 051923Z 00019KT 12/05 A302 RMK A01 T01230049  RH  060%=      5-min Rain = 0
KLE1 051924Z 02020KT 12/05 A302 RMK A01 T01220047  RH  060%=      5-min Rain = 0
KLE1 051925Z 02023KT 12/05 A302 RMK A01 T01210048  RH  061%=      5-min Rain = 0
KLE1 051926Z 03021KT 12/05 A302 RMK A01 T01190047  RH  061%=      5-min Rain = 0
KLE1 051927Z 03022KT 12/05 A302 RMK A01 T01180047  RH  062%=      5-min Rain = 0
KLE1 051928Z 03019KT 12/05 A302 RMK A01 T01170047  RH  062%=      5-min Rain = 0
KLE1 051929Z 03020KT 12/05 A302 RMK A01 T01170047  RH  062%=      5-min Rain = 0
KLE1 051930Z 03021KT 12/05 A302 RMK A01 T01170048  RH  062%=      5-min Rain = 0
KLE1 051931Z 02021KT 12/05 A302 RMK A01 T01170048  RH  063%=      5-min Rain = 0
KLE1 051932Z 02019KT 12/05 A302 RMK A01 T01160048  RH  063%=      5-min Rain = 0
KLE1 051933Z 02018KT 12/05 A302 RMK A01 T01180049  RH  063%=      5-min Rain = 0
KLE1 051934Z 02017KT 12/05 A302 RMK A01 T01190049  RH  063%=      5-min Rain = 0
KLE1 051935Z 01015KT 12/05 A302 RMK A01 T01200050  RH  062%=      5-min Rain = 0
KLE1 051936Z 02014KT 12/05 A302 RMK A01 T01210049  RH  062%=      5-min Rain = 0
KLE1 051937Z 02016G21KT 12/05 A302 RMK A01 T01220050  RH  061%=      5-min Rain = 0
KLE1 051938Z 01018G23KT 12/05 A302 RMK A01 T01220048  RH  061%=      5-min Rain = 0
KLE1 051939Z 01017KT 12/05 A302 RMK A01 T01210048  RH  061%=      5-min Rain = 0
KLE1 051940Z 01016KT 12/05 A302 RMK A01 T01200048  RH  061%=      5-min Rain = 0
KLE1 051941Z 01017G23KT 12/05 A302 RMK A01 T01200048  RH  061%=      5-min Rain = 0
KLE1 051942Z 01017G22KT 12/05 A302 RMK A01 T01220048  RH  061%=      5-min Rain = 0
KLE1 051943Z 36016G22KT 12/05 A302 RMK A01 T01230049  RH  060%=      5-min Rain = 0
KLE1 051944Z 36019KT 13/05 A302 RMK A01 T01250049  RH  060%=      5-min Rain = 0
KLE1 051945Z 01019KT 13/05 A302 RMK A01 T01250048  RH  059%=      5-min Rain = 0
KLE1 051946Z 01018KT 13/05 A302 RMK A01 T01250048  RH  059%=      5-min Rain = 0
KLE1 051947Z 01019KT 13/05 A302 RMK A01 T01250048  RH  059%=      5-min Rain = 0
KLE1 051948Z 01018KT 12/05 A302 RMK A01 T01240047  RH  059%=      5-min Rain = 0
KLE1 051949Z 36018KT 12/05 A302 RMK A01 T01230047  RH  060%=      5-min Rain = 0
KLE1 051950Z 00021KT 12/05 A302 RMK A01 T01230047  RH  060%=      5-min Rain = 0
KLE1 051951Z 36018KT 12/05 A302 RMK A01 T01230047  RH  060%=      5-min Rain = 0
KLE1 051952Z 36019KT 12/05 A302 RMK A01 T01240047  RH  059%=      5-min Rain = 0
KLE1 051953Z 00020KT 13/05 A302 RMK A01 T01250047  RH  059%=      5-min Rain = 0
KLE1 051954Z 00021KT 12/05 A302 RMK A01 T01240047  RH  059%=      5-min Rain = 0
KLE1 051955Z 01023KT 12/05 A302 RMK A01 T01230046  RH  059%=      5-min Rain = 0
KLE1 051956Z 01022KT 12/05 A302 RMK A01 T01230046  RH  060%=      5-min Rain = 0
KLE1 051957Z 00021KT 12/05 A302 RMK A01 T01220046  RH  060%=      5-min Rain = 0
KLE1 051958Z 00020KT 12/05 A302 RMK A01 T01210046  RH  060%=      5-min Rain = 0
KLE1 051959Z 00017KT 12/05 A302 RMK A01 T01210046  RH  060%=      5-min Rain = 0
KLE1 052000Z 01018G23KT 12/05 A302 RMK A01 T01220046  RH  060%=      5-min Rain = 0
KLE1 052001Z 01020KT 12/05 A302 RMK A01 T01220046  RH  060%=      5-min Rain = 0
KLE1 052002Z 01018KT 12/05 A302 RMK A01 T01220046  RH  060%=      5-min Rain = 0
KLE1 052003Z 02021KT 12/05 A302 RMK A01 T01210046  RH  060%=      5-min Rain = 0
KLE1 052004Z 02023KT 12/05 A302 RMK A01 T01200046  RH  060%=      5-min Rain = 0
KLE1 052005Z 01022KT 12/05 A302 RMK A01 T01190046  RH  061%=      5-min Rain = 0
KLE1 052006Z 01021KT 12/05 A302 RMK A01 T01190047  RH  061%=      5-min Rain = 0
KLE1 052007Z 01017KT 12/05 A302 RMK A01 T01190047  RH  061%=      5-min Rain = 0
KLE1 052008Z 01017KT 12/05 A302 RMK A01 T01190047  RH  061%=      5-min Rain = 0
KLE1 052009Z 01013KT 12/05 A302 RMK A01 T01190047  RH  061%=      5-min Rain = 0
KLE1 052010Z 01015KT 12/05 A302 RMK A01 T01190047  RH  061%=      5-min Rain = 0
KLE1 052011Z 01016KT 12/05 A302 RMK A01 T01190047  RH  061%=      5-min Rain = 0
KLE1 052012Z 00020KT 12/05 A302 RMK A01 T01190048  RH  061%=      5-min Rain = 0
KLE1 052013Z 36023KT 12/05 A302 RMK A01 T01200048  RH  061%=      5-min Rain = 0
KLE1 052014Z 01022KT 12/05 A302 RMK A01 T01200048  RH  061%=      5-min Rain = 0
KLE1 052015Z 00020KT 12/05 A302 RMK A01 T01200048  RH  061%=      5-min Rain = 0
KLE1 052016Z 36021KT 12/05 A302 RMK A01 T01220050  RH  061%=      5-min Rain = 0
KLE1 052017Z 00023KT 12/05 A302 RMK A01 T01230050  RH  061%=      5-min Rain = 0
KLE1 052018Z 00018G23KT 12/05 A302 RMK A01 T01230049  RH  061%=      5-min Rain = 0
KLE1 052019Z 01017G23KT 12/05 A302 RMK A01 T01240050  RH  061%=      5-min Rain = 0
KLE1 052020Z 01019KT 13/05 A302 RMK A01 T01250050  RH  060%=      5-min Rain = 0
KLE1 052021Z 01019KT 12/05 A302 RMK A01 T01240049  RH  060%=      5-min Rain = 0
KLE1 052022Z 01018G23KT 12/05 A302 RMK A01 T01240049  RH  060%=      5-min Rain = 0
KLE1 052023Z 00015G22KT 12/05 A302 RMK A01 T01240050  RH  061%=      5-min Rain = 0
KLE1 052024Z 01018G23KT 12/05 A302 RMK A01 T01240050  RH  061%=      5-min Rain = 0
KLE1 052025Z 01016KT 13/05 A302 RMK A01 T01250050  RH  060%=      5-min Rain = 0
KLE1 052026Z 00020G27KT 13/05 A302 RMK A01 T01250050  RH  060%=      5-min Rain = 0
KLE1 052027Z 00025KT 12/05 A302 RMK A01 T01240049  RH  060%=      5-min Rain = 0
KLE1 052028Z 01024KT 12/05 A302 RMK A01 T01220048  RH  060%=      5-min Rain = 0
KLE1 052029Z 01022KT 12/05 A302 RMK A01 T01210048  RH  061%=      5-min Rain = 0
KLE1 052030Z 01022KT 12/05 A302 RMK A01 T01200049  RH  061%=      5-min Rain = 0
KLE1 052031Z 01020G25KT 12/05 A302 RMK A01 T01200049  RH  062%=      5-min Rain = 0
KLE1 052032Z 00018KT 12/05 A302 RMK A01 T01200049  RH  062%=      5-min Rain = 0
KLE1 052033Z 01018G23KT 12/05 A302 RMK A01 T01200049  RH  062%=      5-min Rain = 0
KLE1 052034Z 01020KT 12/05 A302 RMK A01 T01200049  RH  062%=      5-min Rain = 0
KLE1 052035Z 02020KT 12/05 A302 RMK A01 T01200049  RH  062%=      5-min Rain = 0
KLE1 052036Z 01020KT 12/05 A302 RMK A01 T01200049  RH  062%=      5-min Rain = 0
KLE1 052037Z 01017KT 12/05 A3021 RMK A01 T01200049  RH  062%=      5-min Rain = 0
KLE1 052038Z 02016KT 12/05 A3021 RMK A01 T01190050  RH  062%=      5-min Rain = 0
KLE1 052039Z 03017KT 12/05 A3021 RMK A01 T01200051  RH  063%=      5-min Rain = 0
KLE1 052040Z 05017KT 12/05 A3021 RMK A01 T01180052  RH  064%=      5-min Rain = 0
KLE1 052041Z 05017KT 12/05 A3021 RMK A01 T01150053  RH  065%=      5-min Rain = 0
KLE1 052042Z 05016KT 11/05 A3021 RMK A01 T01140053  RH  066%=      5-min Rain = 0
KLE1 052043Z 05015KT 11/05 A3021 RMK A01 T01140054  RH  066%=      5-min Rain = 0
KLE1 052044Z 05012KT 11/05 A302 RMK A01 T01140053  RH  066%=      5-min Rain = 0
KLE1 052045Z 04011KT 12/05 A302 RMK A01 T01160054  RH  066%=      5-min Rain = 0
KLE1 052046Z 04012KT 12/05 A302 RMK A01 T01180054  RH  065%=      5-min Rain = 0
KLE1 052047Z 03011KT 12/05 A302 RMK A01 T01180054  RH  064%=      5-min Rain = 0
KLE1 052048Z 03010KT 12/05 A302 RMK A01 T01190054  RH  064%=      5-min Rain = 0
KLE1 052049Z 02013KT 12/05 A302 RMK A01 T01210054  RH  064%=      5-min Rain = 0
KLE1 052050Z 02013KT 12/05 A302 RMK A01 T01210053  RH  063%=      5-min Rain = 0
KLE1 052051Z 02013KT 12/05 A302 RMK A01 T01210052  RH  062%=      5-min Rain = 0
KLE1 052052Z 02012G17KT 12/05 A302 RMK A01 T01220052  RH  062%=      5-min Rain = 0
KLE1 052053Z 02014KT 12/05 A302 RMK A01 T01220051  RH  062%=      5-min Rain = 0
KLE1 052054Z 01011KT 12/05 A302 RMK A01 T01240052  RH  061%=      5-min Rain = 0
KLE1 052055Z 02011KT 13/05 A302 RMK A01 T01270053  RH  061%=      5-min Rain = 0
KLE1 052056Z 02015KT 13/05 A302 RMK A01 T01290051  RH  059%=      5-min Rain = 0
KLE1 052057Z 02014KT 13/05 A3021 RMK A01 T01290051  RH  059%=      5-min Rain = 0
KLE1 052058Z 03016KT 13/05 A302 RMK A01 T01300050  RH  058%=      5-min Rain = 0
KLE1 052059Z 03015KT 13/05 A302 RMK A01 T01300048  RH  058%=      5-min Rain = 0
KLE1 052100Z 02013KT 13/05 A3021 RMK A01 T01300049  RH  058%=      5-min Rain = 0
KLE1 052101Z 02014KT 13/05 A3021 RMK A01 T01310050  RH  058%=      5-min Rain = 0
KLE1 052102Z 01011KT 13/05 A3021 RMK A01 T01320050  RH  057%=      5-min Rain = 0
KLE1 052103Z 02011KT 13/05 A3021 RMK A01 T01340052  RH  057%=      5-min Rain = 0
KLE1 052104Z 01014G19KT 14/05 A3021 RMK A01 T01360051  RH  056%=      5-min Rain = 0
KLE1 052105Z 02016KT 14/05 A3021 RMK A01 T01350049  RH  056%=      5-min Rain = 0
KLE1 052106Z 02013KT 13/05 A3021 RMK A01 T01340049  RH  056%=      5-min Rain = 0
KLE1 052107Z 01013KT 13/05 A3021 RMK A01 T01340048  RH  056%=      5-min Rain = 0
KLE1 052108Z 00014G20KT 13/05 A3021 RMK A01 T01330048  RH  056%=      5-min Rain = 0
KLE1 052109Z 00018KT 13/05 A3021 RMK A01 T01320047  RH  056%=      5-min Rain = 0
KLE1 052110Z 36017G22KT 13/05 A3021 RMK A01 T01320047  RH  056%=      5-min Rain = 0
KLE1 052111Z 01015KT 13/05 A3021 RMK A01 T01330047  RH  056%=      5-min Rain = 0
KLE1 052112Z 02015KT 14/05 A3021 RMK A01 T01350048  RH  056%=      5-min Rain = 0
KLE1 052113Z 01014KT 14/05 A3021 RMK A01 T01350047  RH  055%=      5-min Rain = 0
KLE1 052114Z 01013KT 14/05 A3021 RMK A01 T01350047  RH  055%=      5-min Rain = 0
KLE1 052115Z 02014KT 13/05 A3021 RMK A01 T01340047  RH  056%=      5-min Rain = 0
KLE1 052116Z 01015KT 14/05 A3021 RMK A01 T01350048  RH  055%=      5-min Rain = 0
KLE1 052117Z 02015KT 14/05 A3021 RMK A01 T01350047  RH  055%=      5-min Rain = 0
KLE1 052118Z 01018KT 14/05 A3021 RMK A01 T01350046  RH  055%=      5-min Rain = 0
KLE1 052119Z 00018KT 13/05 A3021 RMK A01 T01340045  RH  055%=      5-min Rain = 0
KLE1 052120Z 01017KT 13/05 A3021 RMK A01 T01340046  RH  055%=      5-min Rain = 0
KLE1 052121Z 02017KT 13/05 A3021 RMK A01 T01340046  RH  055%=      5-min Rain = 0
KLE1 052122Z 02016KT 13/05 A3021 RMK A01 T01330046  RH  055%=      5-min Rain = 0
KLE1 052123Z 02017KT 13/05 A3021 RMK A01 T01330045  RH  055%=      5-min Rain = 0
KLE1 052124Z 03018KT 13/05 A3021 RMK A01 T01320045  RH  056%=      5-min Rain = 0
KLE1 052125Z 02018KT 13/05 A3021 RMK A01 T01310045  RH  056%=      5-min Rain = 0
KLE1 052126Z 01017KT 13/05 A3021 RMK A01 T01310045  RH  056%=      5-min Rain = 0
KLE1 052127Z 02016KT 13/05 A3021 RMK A01 T01300045  RH  056%=      5-min Rain = 0
KLE1 052128Z 01015KT 13/05 A3021 RMK A01 T01310046  RH  056%=      5-min Rain = 0
KLE1 052129Z 02014KT 13/05 A3021 RMK A01 T01320046  RH  056%=      5-min Rain = 0
KLE1 052130Z 01013KT 13/05 A3021 RMK A01 T01330046  RH  056%=      5-min Rain = 0
KLE1 052131Z 01014KT 13/05 A3021 RMK A01 T01340046  RH  055%=      5-min Rain = 0
KLE1 052132Z 02016KT 13/05 A3021 RMK A01 T01340045  RH  055%=      5-min Rain = 0
KLE1 052133Z 02015KT 13/04 A3021 RMK A01 T01340044  RH  055%=      5-min Rain = 0
KLE1 052134Z 02016KT 13/04 A3021 RMK A01 T01340044  RH  055%=      5-min Rain = 0
KLE1 052135Z 01016KT 13/04 A3021 RMK A01 T01340043  RH  054%=      5-min Rain = 0
KLE1 052136Z 02015KT 13/04 A3021 RMK A01 T01340043  RH  054%=      5-min Rain = 0
KLE1 052137Z 02015KT 13/04 A3021 RMK A01 T01340043  RH  054%=      5-min Rain = 0
KLE1 052138Z 01018KT 14/04 A3021 RMK A01 T01350043  RH  054%=      5-min Rain = 0
KLE1 052139Z 01018KT 13/04 A3021 RMK A01 T01340042  RH  054%=      5-min Rain = 0
KLE1 052140Z 02017KT 13/04 A3021 RMK A01 T01340042  RH  054%=      5-min Rain = 0
KLE1 052141Z 02015KT 13/04 A3021 RMK A01 T01340042  RH  054%=      5-min Rain = 0
KLE1 052142Z 02016KT 13/04 A3021 RMK A01 T01340042  RH  054%=      5-min Rain = 0
KLE1 052143Z 02014KT 13/04 A3021 RMK A01 T01340042  RH  054%=      5-min Rain = 0
KLE1 052144Z 02013KT 13/04 A3021 RMK A01 T01340042  RH  054%=      5-min Rain = 0
KLE1 052145Z 02014KT 14/04 A3021 RMK A01 T01350042  RH  053%=      5-min Rain = 0
KLE1 052146Z 02017KT 14/04 A3021 RMK A01 T01360042  RH  053%=      5-min Rain = 0
KLE1 052147Z 02015KT 14/04 A3021 RMK A01 T01360042  RH  053%=      5-min Rain = 0
KLE1 052148Z 00016KT 14/04 A3021 RMK A01 T01360042  RH  053%=      5-min Rain = 0
KLE1 052149Z 02013KT 14/04 A3021 RMK A01 T01370043  RH  053%=      5-min Rain = 0
KLE1 052150Z 02013KT 14/04 A3021 RMK A01 T01380043  RH  053%=      5-min Rain = 0
KLE1 052151Z 02017KT 14/04 A3021 RMK A01 T01380042  RH  052%=      5-min Rain = 0
KLE1 052152Z 02020KT 14/04 A3021 RMK A01 T01380041  RH  052%=      5-min Rain = 0
KLE1 052153Z 02018KT 14/04 A3021 RMK A01 T01370040  RH  052%=      5-min Rain = 0
KLE1 052154Z 03017G22KT 14/04 A3021 RMK A01 T01370040  RH  052%=      5-min Rain = 0
KLE1 052155Z 03016G21KT 14/04 A3021 RMK A01 T01360040  RH  052%=      5-min Rain = 0
KLE1 052156Z 03018KT 14/04 A3021 RMK A01 T01360039  RH  052%=      5-min Rain = 0
KLE1 052157Z 04014KT 14/04 A3022 RMK A01 T01360040  RH  052%=      5-min Rain = 0
KLE1 052158Z 04012KT 14/04 A3022 RMK A01 T01360042  RH  053%=      5-min Rain = 0
KLE1 052159Z 02017KT 14/04 A3022 RMK A01 T01360042  RH  053%=      5-min Rain = 0
KLE1 052200Z 02019KT 14/04 A3022 RMK A01 T01360041  RH  053%=      5-min Rain = 0
KLE1 052201Z 03014KT 14/04 A3022 RMK A01 T01350040  RH  053%=      5-min Rain = 0
KLE1 052202Z 03012KT 14/04 A3022 RMK A01 T01350041  RH  053%=      5-min Rain = 0
KLE1 052203Z 02017KT 14/04 A3022 RMK A01 T01360041  RH  053%=      5-min Rain = 0
KLE1 052204Z 02017KT 14/04 A3022 RMK A01 T01360041  RH  052%=      5-min Rain = 0
KLE1 052205Z 03018G24KT 14/04 A3021 RMK A01 T01360041  RH  052%=      5-min Rain = 0
KLE1 052206Z 03020KT 14/04 A3021 RMK A01 T01370041  RH  052%=      5-min Rain = 0
KLE1 052207Z 02016G21KT 14/04 A3021 RMK A01 T01380042  RH  052%=      5-min Rain = 0
KLE1 052208Z 03017KT 14/04 A3022 RMK A01 T01380042  RH  052%=      5-min Rain = 0
KLE1 052209Z 03017KT 14/04 A3022 RMK A01 T01390042  RH  052%=      5-min Rain = 0
KLE1 052210Z 03017KT 14/04 A3022 RMK A01 T01380041  RH  052%=      5-min Rain = 0
KLE1 052211Z 03016KT 14/04 A3022 RMK A01 T01390043  RH  052%=      5-min Rain = 0
KLE1 052212Z 03017KT 14/04 A3022 RMK A01 T01400043  RH  052%=      5-min Rain = 0
KLE1 052213Z 03020KT 14/04 A3022 RMK A01 T01400042  RH  052%=      5-min Rain = 0
KLE1 052214Z 02017KT 14/04 A3022 RMK A01 T01400043  RH  052%=      5-min Rain = 0
KLE1 052215Z 03018KT 14/04 A3022 RMK A01 T01400042  RH  052%=      5-min Rain = 0
KLE1 052216Z 04018KT 14/04 A3022 RMK A01 T01400041  RH  051%=      5-min Rain = 0
KLE1 052217Z 02016KT 14/04 A3022 RMK A01 T01390042  RH  052%=      5-min Rain = 0
KLE1 052218Z 03016G21KT 14/04 A3022 RMK A01 T01390042  RH  052%=      5-min Rain = 0
KLE1 052219Z 02017KT 14/04 A3022 RMK A01 T01400041  RH  051%=      5-min Rain = 0
KLE1 052220Z 03016KT 14/04 A3022 RMK A01 T01410041  RH  051%=      5-min Rain = 0
KLE1 052221Z 03018KT 15/04 A3022 RMK A01 T01450043  RH  050%=      5-min Rain = 0
KLE1 052222Z 03019KT 15/04 A3022 RMK A01 T01480043  RH  049%=      5-min Rain = 0
KLE1 052223Z 02018KT 15/04 A3022 RMK A01 T01500041  RH  048%=      5-min Rain = 0
KLE1 052224Z 03018KT 15/04 A3022 RMK A01 T01460039  RH  048%=      5-min Rain = 0
KLE1 052225Z 02018KT 14/04 A3022 RMK A01 T01440039  RH  049%=      5-min Rain = 0
KLE1 052226Z 02017KT 14/04 A3022 RMK A01 T01410038  RH  050%=      5-min Rain = 0
KLE1 052227Z 02016KT 14/04 A3022 RMK A01 T01410039  RH  050%=      5-min Rain = 0
KLE1 052228Z 02013KT 14/04 A3022 RMK A01 T01440042  RH  050%=      5-min Rain = 0
KLE1 052229Z 03014KT 15/04 A3022 RMK A01 T01460042  RH  049%=      5-min Rain = 0
KLE1 052230Z 04013KT 15/04 A3022 RMK A01 T01460041  RH  049%=      5-min Rain = 0
KLE1 052231Z 04015KT 15/04 A3022 RMK A01 T01470041  RH  049%=      5-min Rain = 0
KLE1 052232Z 04016KT 15/04 A3022 RMK A01 T01470041  RH  049%=      5-min Rain = 0
KLE1 052233Z 04017KT 15/04 A3022 RMK A01 T01480042  RH  049%=      5-min Rain = 0
KLE1 052234Z 04017KT 15/04 A3022 RMK A01 T01490042  RH  049%=      5-min Rain = 0
KLE1 052235Z 03016KT 15/04 A3022 RMK A01 T01490042  RH  049%=      5-min Rain = 0
KLE1 052236Z 03016KT 15/04 A3022 RMK A01 T01490042  RH  049%=      5-min Rain = 0
KLE1 052237Z 03015KT 15/04 A3022 RMK A01 T01480041  RH  049%=      5-min Rain = 0
KLE1 052238Z 04013KT 15/04 A3022 RMK A01 T01460041  RH  049%=      5-min Rain = 0
KLE1 052239Z 03016KT 15/04 A3022 RMK A01 T01460041  RH  049%=      5-min Rain = 0
KLE1 052240Z 03018KT 15/04 A3022 RMK A01 T01460039  RH  049%=      5-min Rain = 0
KLE1 052241Z 03019KT 14/04 A3022 RMK A01 T01440038  RH  049%=      5-min Rain = 0
KLE1 052242Z 03016KT 14/04 A3022 RMK A01 T01430038  RH  049%=      5-min Rain = 0
KLE1 052243Z 03017KT 14/04 A3022 RMK A01 T01420038  RH  050%=      5-min Rain = 0
KLE1 052244Z 03018KT 14/04 A3022 RMK A01 T01420039  RH  050%=      5-min Rain = 0
KLE1 052245Z 04017G23KT 14/04 A3022 RMK A01 T01420039  RH  050%=      5-min Rain = 0
KLE1 052246Z 03020KT 15/04 A3022 RMK A01 T01450039  RH  049%=      5-min Rain = 0
KLE1 052247Z 04018KT 15/04 A3022 RMK A01 T01450039  RH  049%=      5-min Rain = 0
KLE1 052248Z 04019G24KT 15/04 A3022 RMK A01 T01460039  RH  049%=      5-min Rain = 0
KLE1 052249Z 04018G23KT 15/04 A3022 RMK A01 T01460037  RH  048%=      5-min Rain = 0
KLE1 052250Z 03019G24KT 15/04 A3022 RMK A01 T01450037  RH  048%=      5-min Rain = 0
KLE1 052251Z 04019KT 15/04 A3022 RMK A01 T01450038  RH  049%=      5-min Rain = 0
KLE1 052252Z 03019KT 15/04 A3022 RMK A01 T01460039  RH  049%=      5-min Rain = 0
KLE1 052253Z 03018KT 15/04 A3022 RMK A01 T01460039  RH  048%=      5-min Rain = 0
KLE1 052254Z 04015KT 15/04 A3022 RMK A01 T01480040  RH  048%=      5-min Rain = 0
KLE1 052255Z 04017KT 15/04 A3022 RMK A01 T01500040  RH  048%=      5-min Rain = 0
KLE1 052256Z 04017KT 15/04 A3022 RMK A01 T01490039  RH  048%=      5-min Rain = 0
KLE1 052257Z 04015KT 15/04 A3022 RMK A01 T01480039  RH  048%=      5-min Rain = 0
KLE1 052258Z 03018KT 15/04 A3022 RMK A01 T01480039  RH  048%=      5-min Rain = 0
KLE1 052259Z 03022KT 15/04 A3022 RMK A01 T01480039  RH  048%=      5-min Rain = 0
KLE1 052300Z 04021KT 15/04 A3022 RMK A01 T01470039  RH  048%=      5-min Rain = 0
KLE1 052301Z 04018KT 15/04 A3022 RMK A01 T01470039  RH  048%=      5-min Rain = 0
KLE1 052302Z 04019KT 15/04 A3022 RMK A01 T01470039  RH  048%=      5-min Rain = 0
KLE1 052303Z 04019KT 15/04 A3022 RMK A01 T01470039  RH  048%=      5-min Rain = 0
KLE1 052304Z 04017KT 15/04 A3022 RMK A01 T01460038  RH  048%=      5-min Rain = 0
KLE1 052305Z 04017KT 14/04 A3022 RMK A01 T01440038  RH  049%=      5-min Rain = 0
KLE1 052306Z 03015KT 14/04 A3022 RMK A01 T01430038  RH  049%=      5-min Rain = 0
KLE1 052307Z 04014KT 14/04 A3022 RMK A01 T01420038  RH  049%=      5-min Rain = 0
KLE1 052308Z 04017KT 14/04 A3022 RMK A01 T01420038  RH  050%=      5-min Rain = 0
KLE1 052309Z 05016KT 14/04 A3022 RMK A01 T01420039  RH  050%=      5-min Rain = 0
KLE1 052310Z 03015KT 14/04 A3022 RMK A01 T01430040  RH  050%=      5-min Rain = 0
KLE1 052311Z 03016KT 14/04 A3022 RMK A01 T01440040  RH  049%=      5-min Rain = 0
KLE1 052312Z 03014KT 15/04 A3022 RMK A01 T01450040  RH  049%=      5-min Rain = 0
KLE1 052313Z 03010KT 15/04 A3022 RMK A01 T01450041  RH  049%=      5-min Rain = 0
KLE1 052314Z 03012KT 15/04 A3022 RMK A01 T01470042  RH  049%=      5-min Rain = 0
KLE1 052315Z 03016KT 15/04 A3022 RMK A01 T01480041  RH  049%=      5-min Rain = 0
KLE1 052316Z 05017KT 15/04 A3022 RMK A01 T01480041  RH  049%=      5-min Rain = 0
KLE1 052317Z 03017KT 15/04 A3022 RMK A01 T01490041  RH  048%=      5-min Rain = 0
KLE1 052318Z 03015KT 15/04 A3022 RMK A01 T01490041  RH  048%=      5-min Rain = 0
KLE1 052319Z 04019KT 15/04 A3022 RMK A01 T01500041  RH  048%=      5-min Rain = 0
KLE1 052320Z 04019KT 15/04 A3022 RMK A01 T01490040  RH  048%=      5-min Rain = 0
KLE1 052321Z 04018KT 15/04 A3022 RMK A01 T01490040  RH  048%=      5-min Rain = 0
KLE1 052322Z 04019KT 15/04 A3022 RMK A01 T01480040  RH  048%=      5-min Rain = 0
KLE1 052323Z 04018KT 15/04 A3022 RMK A01 T01470040  RH  049%=      5-min Rain = 0
KLE1 052324Z 03016KT 15/04 A3023 RMK A01 T01450040  RH  049%=      5-min Rain = 0
KLE1 052325Z 03017KT 14/04 A3023 RMK A01 T01440040  RH  049%=      5-min Rain = 0
KLE1 052326Z 03017KT 14/04 A3023 RMK A01 T01430040  RH  050%=      5-min Rain = 0
KLE1 052327Z 04015KT 14/04 A3023 RMK A01 T01430040  RH  050%=      5-min Rain = 0
KLE1 052328Z 03014KT 14/04 A3023 RMK A01 T01430041  RH  050%=      5-min Rain = 0
KLE1 052329Z 03015KT 14/04 A3023 RMK A01 T01420040  RH  050%=      5-min Rain = 0
KLE1 052330Z 05012KT 14/04 A3023 RMK A01 T01420040  RH  050%=      5-min Rain = 0
KLE1 052331Z 04015KT 14/04 A3023 RMK A01 T01420040  RH  050%=      5-min Rain = 0
KLE1 052332Z 04014KT 14/04 A3023 RMK A01 T01420040  RH  050%=      5-min Rain = 0
KLE1 052333Z 04015KT 14/04 A3023 RMK A01 T01420041  RH  050%=      5-min Rain = 0
KLE1 052334Z 05015KT 14/04 A3023 RMK A01 T01420041  RH  051%=      5-min Rain = 0
KLE1 052335Z 06014KT 14/04 A3023 RMK A01 T01420041  RH  051%=      5-min Rain = 0
KLE1 052336Z 06015KT 14/04 A3023 RMK A01 T01420041  RH  051%=      5-min Rain = 0
KLE1 052337Z 06014KT 14/04 A3023 RMK A01 T01420041  RH  051%=      5-min Rain = 0
KLE1 052338Z 06015KT 14/04 A3023 RMK A01 T01430041  RH  051%=      5-min Rain = 0
KLE1 052339Z 06016KT 14/04 A3023 RMK A01 T01430041  RH  050%=      5-min Rain = 0
KLE1 052340Z 06015KT 14/04 A3023 RMK A01 T01430041  RH  050%=      5-min Rain = 0
KLE1 052341Z 06014KT 14/04 A3023 RMK A01 T01430041  RH  050%=      5-min Rain = 0
KLE1 052342Z 06014KT 14/04 A3023 RMK A01 T01430041  RH  050%=      5-min Rain = 0
KLE1 052343Z 06015KT 14/04 A3023 RMK A01 T01420041  RH  050%=      5-min Rain = 0
KLE1 052344Z 06013KT 14/04 A3023 RMK A01 T01420041  RH  050%=      5-min Rain = 0
KLE1 052345Z 05013KT 14/04 A3023 RMK A01 T01430041  RH  050%=      5-min Rain = 0
KLE1 052346Z 05014KT 14/04 A3023 RMK A01 T01440041  RH  050%=      5-min Rain = 0
KLE1 052347Z 05015KT 15/04 A3023 RMK A01 T01450041  RH  050%=      5-min Rain = 0
KLE1 052348Z 05014KT 15/04 A3023 RMK A01 T01450041  RH  050%=      5-min Rain = 0
KLE1 052349Z 06015KT 14/04 A3023 RMK A01 T01440041  RH  050%=      5-min Rain = 0
KLE1 052350Z 05013KT 14/04 A3023 RMK A01 T01440041  RH  050%=      5-min Rain = 0
KLE1 052351Z 05012KT 14/04 A3023 RMK A01 T01440042  RH  050%=      5-min Rain = 0
KLE1 052352Z 06011KT 14/04 A3023 RMK A01 T01440042  RH  050%=      5-min Rain = 0
KLE1 052353Z 06011KT 14/04 A3023 RMK A01 T01440042  RH  050%=      5-min Rain = 0
KLE1 052354Z 05011KT 15/04 A3023 RMK A01 T01450042  RH  050%=      5-min Rain = 0
KLE1 052355Z 05011KT 15/04 A3023 RMK A01 T01450042  RH  050%=      5-min Rain = 0
KLE1 052356Z 05010KT 14/04 A3023 RMK A01 T01440042  RH  050%=      5-min Rain = 0
KLE1 052357Z 05011KT 14/04 A3023 RMK A01 T01440042  RH  050%=      5-min Rain = 0
KLE1 052358Z 05012KT 14/04 A3023 RMK A01 T01440042  RH  050%=      5-min Rain = 0
KLE1 052359Z 05012KT 14/04 A3023 RMK A01 T01440042  RH  050%=      5-min Rain = 0
KLE1 060000Z 05010KT 14/04 A3023 RMK A01 T01430042  RH  051%=      5-min Rain = 0
KLE1 060001Z 05013KT 14/04 A3023 RMK A01 T01430042  RH  051%=      5-min Rain = 0
KLE1 060002Z 05013KT 14/04 A3023 RMK A01 T01430043  RH  051%=      5-min Rain = 0
KLE1 060003Z 05012KT 14/04 A3023 RMK A01 T01430042  RH  051%=      5-min Rain = 0
KLE1 060004Z 06010KT 14/04 A3024 RMK A01 T01430043  RH  051%=      5-min Rain = 0
KLE1 060005Z 05012KT 14/04 A3024 RMK A01 T01430043  RH  051%=      5-min Rain = 0
KLE1 060006Z 06012KT 14/04 A3024 RMK A01 T01440043  RH  051%=      5-min Rain = 0
KLE1 060007Z 06013KT 14/04 A3024 RMK A01 T01430043  RH  051%=      5-min Rain = 0
KLE1 060008Z 06011KT 14/04 A3024 RMK A01 T01430043  RH  051%=      5-min Rain = 0
KLE1 060009Z 06012KT 14/04 A3024 RMK A01 T01430044  RH  051%=      5-min Rain = 0
KLE1 060010Z 07011KT 14/04 A3024 RMK A01 T01430043  RH  051%=      5-min Rain = 0
KLE1 060011Z 07012KT 14/04 A3024 RMK A01 T01420043  RH  051%=      5-min Rain = 0
KLE1 060012Z 07013KT 14/04 A3024 RMK A01 T01410042  RH  051%=      5-min Rain = 0
KLE1 060013Z 07015KT 14/04 A3024 RMK A01 T01400042  RH  052%=      5-min Rain = 0
KLE1 060014Z 06014KT 14/04 A3024 RMK A01 T01390042  RH  052%=      5-min Rain = 0
KLE1 060015Z 06013KT 14/04 A3024 RMK A01 T01380042  RH  052%=      5-min Rain = 0
KLE1 060016Z 06013KT 14/04 A3024 RMK A01 T01380042  RH  052%=      5-min Rain = 0
KLE1 060017Z 06013KT 14/04 A3024 RMK A01 T01380043  RH  053%=      5-min Rain = 0
KLE1 060018Z 07014KT 14/04 A3024 RMK A01 T01370042  RH  053%=      5-min Rain = 0
KLE1 060019Z 06012KT 14/04 A3024 RMK A01 T01370042  RH  053%=      5-min Rain = 0
KLE1 060020Z 06013KT 14/04 A3024 RMK A01 T01370042  RH  053%=      5-min Rain = 0
KLE1 060021Z 06015KT 14/04 A3024 RMK A01 T01370043  RH  053%=      5-min Rain = 0
KLE1 060022Z 06013KT 14/04 A3025 RMK A01 T01360043  RH  053%=      5-min Rain = 0
KLE1 060023Z 06011KT 14/04 A3025 RMK A01 T01360043  RH  053%=      5-min Rain = 0
KLE1 060024Z 06011KT 14/04 A3025 RMK A01 T01360043  RH  053%=      5-min Rain = 0
KLE1 060025Z 06010KT 14/04 A3025 RMK A01 T01360043  RH  053%=      5-min Rain = 0
KLE1 060026Z 06010KT 14/04 A3025 RMK A01 T01350042  RH  054%=      5-min Rain = 0
KLE1 060027Z 06011KT 14/04 A3025 RMK A01 T01350043  RH  054%=      5-min Rain = 0
KLE1 060028Z 06011KT 13/04 A3025 RMK A01 T01340043  RH  054%=      5-min Rain = 0
KLE1 060029Z 06011KT 13/04 A3025 RMK A01 T01340043  RH  054%=      5-min Rain = 0
KLE1 060030Z 06011KT 13/04 A3025 RMK A01 T01340043  RH  054%=      5-min Rain = 0
KLE1 060031Z 06009KT 13/04 A3025 RMK A01 T01330043  RH  054%=      5-min Rain = 0
KLE1 060032Z 05010KT 13/04 A3025 RMK A01 T01320043  RH  055%=      5-min Rain = 0
KLE1 060033Z 05012KT 13/04 A3025 RMK A01 T01320043  RH  055%=      5-min Rain = 0
KLE1 060034Z 06010KT 13/04 A3025 RMK A01 T01320043  RH  055%=      5-min Rain = 0
KLE1 060035Z 06010KT 13/04 A3025 RMK A01 T01310043  RH  055%=      5-min Rain = 0
KLE1 060036Z 05011KT 13/04 A3025 RMK A01 T01310043  RH  055%=      5-min Rain = 0
KLE1 060037Z 06011KT 13/04 A3025 RMK A01 T01310043  RH  055%=      5-min Rain = 0
KLE1 060038Z 05010KT 13/04 A3025 RMK A01 T01300043  RH  055%=      5-min Rain = 0
KLE1 060039Z 05011KT 13/04 A3025 RMK A01 T01300043  RH  056%=      5-min Rain = 0
KLE1 060040Z 05009KT 13/04 A3025 RMK A01 T01290043  RH  056%=      5-min Rain = 0
KLE1 060041Z 06010KT 13/04 A3025 RMK A01 T01290043  RH  056%=      5-min Rain = 0
KLE1 060042Z 05011KT 13/04 A3025 RMK A01 T01290043  RH  056%=      5-min Rain = 0
KLE1 060043Z 05010KT 13/04 A3025 RMK A01 T01290043  RH  056%=      5-min Rain = 0
KLE1 060044Z 05009KT 13/04 A3025 RMK A01 T01280043  RH  056%=      5-min Rain = 0
KLE1 060045Z 05010KT 13/04 A3025 RMK A01 T01270042  RH  056%=      5-min Rain = 0
KLE1 060046Z 06009KT 13/04 A3025 RMK A01 T01270042  RH  056%=      5-min Rain = 0
KLE1 060047Z 05008KT 13/04 A3026 RMK A01 T01260042  RH  057%=      5-min Rain = 0
KLE1 060048Z 06008KT 13/04 A3026 RMK A01 T01250042  RH  057%=      5-min Rain = 0
KLE1 060049Z 06008KT 12/04 A3026 RMK A01 T01240041  RH  057%=      5-min Rain = 0
KLE1 060050Z 06007KT 12/04 A3026 RMK A01 T01240041  RH  057%=      5-min Rain = 0
KLE1 060051Z 06007KT 12/04 A3026 RMK A01 T01220040  RH  057%=      5-min Rain = 0
KLE1 060052Z 06007KT 12/04 A3026 RMK A01 T01210040  RH  058%=      5-min Rain = 0
KLE1 060053Z 07006KT 12/04 A3026 RMK A01 T01200040  RH  058%=      5-min Rain = 0
KLE1 060054Z 08007KT 12/04 A3026 RMK A01 T01180039  RH  058%=      5-min Rain = 0
KLE1 060055Z 07007KT 12/04 A3026 RMK A01 T01170038  RH  059%=      5-min Rain = 0
KLE1 060056Z 07007KT 12/04 A3026 RMK A01 T01150039  RH  059%=      5-min Rain = 0
KLE1 060057Z 07007KT 12/04 A3026 RMK A01 T01150039  RH  060%=      5-min Rain = 0
KLE1 060058Z 07007KT 11/04 A3026 RMK A01 T01140039  RH  060%=      5-min Rain = 0
KLE1 060059Z 07007KT 11/04 A3026 RMK A01 T01130038  RH  060%=      5-min Rain = 0
KLE1 060100Z 07007KT 11/04 A3026 RMK A01 T01120038  RH  061%=      5-min Rain = 0
KLE1 060101Z 07006KT 11/04 A3026 RMK A01 T01110039  RH  061%=      5-min Rain = 0
KLE1 060102Z 06006KT 11/04 A3026 RMK A01 T01110039  RH  061%=      5-min Rain = 0
KLE1 060103Z 06007KT 11/04 A3026 RMK A01 T01100038  RH  061%=      5-min Rain = 0
KLE1 060104Z 07007KT 11/04 A3026 RMK A01 T01100038  RH  061%=      5-min Rain = 0
KLE1 060105Z 07007KT 11/04 A3026 RMK A01 T01090038  RH  062%=      5-min Rain = 0
KLE1 060106Z 06008KT 11/04 A3026 RMK A01 T01090039  RH  062%=      5-min Rain = 0
KLE1 060107Z 06007KT 11/04 A3026 RMK A01 T01100040  RH  062%=      5-min Rain = 0
KLE1 060108Z 06007KT 11/04 A3026 RMK A01 T01100039  RH  062%=      5-min Rain = 0
KLE1 060109Z 06007KT 11/04 A3026 RMK A01 T01100039  RH  062%=      5-min Rain = 0
KLE1 060110Z 06007KT 11/04 A3026 RMK A01 T01090038  RH  062%=      5-min Rain = 0
KLE1 060111Z 06007KT 11/04 A3026 RMK A01 T01070037  RH  062%=      5-min Rain = 0
KLE1 060112Z 06007KT 11/04 A3026 RMK A01 T01060036  RH  062%=      5-min Rain = 0
KLE1 060113Z 06007KT 11/04 A3026 RMK A01 T01050036  RH  062%=      5-min Rain = 0
KLE1 060114Z 06006KT 10/04 A3026 RMK A01 T01040036  RH  063%=      5-min Rain = 0
KLE1 060115Z 06006KT 10/04 A3026 RMK A01 T01030036  RH  063%=      5-min Rain = 0
KLE1 060116Z 06006KT 10/04 A3027 RMK A01 T01030036  RH  063%=      5-min Rain = 0
KLE1 060117Z 06006KT 10/04 A3027 RMK A01 T01030036  RH  063%=      5-min Rain = 0
KLE1 060118Z 06007KT 10/04 A3027 RMK A01 T01020036  RH  064%=      5-min Rain = 0
KLE1 060119Z 06007KT 10/04 A3027 RMK A01 T01030038  RH  064%=      5-min Rain = 0
KLE1 060120Z 06007KT 10/04 A3027 RMK A01 T01030038  RH  064%=      5-min Rain = 0
KLE1 060121Z 06007KT 10/04 A3027 RMK A01 T01030037  RH  064%=      5-min Rain = 0
KLE1 060122Z 06007KT 10/04 A3027 RMK A01 T01030038  RH  064%=      5-min Rain = 0
KLE1 060123Z 05007KT 10/04 A3027 RMK A01 T01020038  RH  064%=      5-min Rain = 0
KLE1 060124Z 05007KT 10/04 A3027 RMK A01 T01030039  RH  065%=      5-min Rain = 0
KLE1 060125Z 05007KT 10/04 A3027 RMK A01 T01030039  RH  064%=      5-min Rain = 0
KLE1 060126Z 05007KT 10/04 A3027 RMK A01 T01020038  RH  064%=      5-min Rain = 0
KLE1 060127Z 05007KT 10/04 A3027 RMK A01 T01020038  RH  065%=      5-min Rain = 0
KLE1 060128Z 05007KT 10/04 A3027 RMK A01 T01010038  RH  065%=      5-min Rain = 0
KLE1 060129Z 05007KT 10/04 A3027 RMK A01 T01010037  RH  065%=      5-min Rain = 0
KLE1 060130Z 05006KT 10/04 A3027 RMK A01 T01010038  RH  065%=      5-min Rain = 0
KLE1 060131Z 05006KT 10/04 A3027 RMK A01 T01010038  RH  065%=      5-min Rain = 0
KLE1 060132Z 05006KT 10/04 A3027 RMK A01 T01010038  RH  065%=      5-min Rain = 0
KLE1 060133Z 05006KT 10/04 A3027 RMK A01 T01010038  RH  065%=      5-min Rain = 0
KLE1 060134Z 05006KT 10/04 A3027 RMK A01 T01010037  RH  065%=      5-min Rain = 0
KLE1 060135Z 05006KT 10/04 A3027 RMK A01 T01010037  RH  065%=      5-min Rain = 0
KLE1 060136Z 05006KT 10/04 A3027 RMK A01 T01010038  RH  065%=      5-min Rain = 0
KLE1 060137Z 05006KT 10/04 A3027 RMK A01 T01010038  RH  065%=      5-min Rain = 0
KLE1 060138Z 05006KT 10/04 A3027 RMK A01 T01010038  RH  065%=      5-min Rain = 0
KLE1 060139Z 05006KT 10/04 A3027 RMK A01 T01010038  RH  065%=      5-min Rain = 0
KLE1 060140Z 05006KT 10/04 A3027 RMK A01 T01010038  RH  065%=      5-min Rain = 0
KLE1 060141Z 05007KT 10/04 A3027 RMK A01 T01000038  RH  065%=      5-min Rain = 0
KLE1 060142Z 05007KT 10/04 A3027 RMK A01 T01000038  RH  065%=      5-min Rain = 0
KLE1 060143Z 05007KT 10/04 A3027 RMK A01 T00990038  RH  065%=      5-min Rain = 0
KLE1 060144Z 06007KT 10/04 A3027 RMK A01 T00990037  RH  066%=      5-min Rain = 0
KLE1 060145Z 06007KT 10/04 A3027 RMK A01 T00980037  RH  066%=      5-min Rain = 0
KLE1 060146Z 06008KT 10/04 A3027 RMK A01 T00980038  RH  066%=      5-min Rain = 0
KLE1 060147Z 06008KT 10/04 A3027 RMK A01 T00970038  RH  066%=      5-min Rain = 0
KLE1 060148Z 06008KT 10/04 A3027 RMK A01 T00970038  RH  067%=      5-min Rain = 0
KLE1 060149Z 06008KT 10/04 A3027 RMK A01 T00970039  RH  067%=      5-min Rain = 0
KLE1 060150Z 06008KT 10/04 A3027 RMK A01 T00970038  RH  067%=      5-min Rain = 0
KLE1 060151Z 06007KT 10/04 A3028 RMK A01 T00960037  RH  067%=      5-min Rain = 0
KLE1 060152Z 06008KT 10/04 A3028 RMK A01 T00950037  RH  067%=      5-min Rain = 0
KLE1 060153Z 06008KT 09/04 A3028 RMK A01 T00940036  RH  067%=      5-min Rain = 0
KLE1 060154Z 06007KT 09/04 A3028 RMK A01 T00930036  RH  067%=      5-min Rain = 0
KLE1 060155Z 06008KT 09/04 A3028 RMK A01 T00920035  RH  068%=      5-min Rain = 0
KLE1 060156Z 06007KT 09/04 A3028 RMK A01 T00910036  RH  068%=      5-min Rain = 0
KLE1 060157Z 06007KT 09/04 A3028 RMK A01 T00910036  RH  068%=      5-min Rain = 0
KLE1 060158Z 06007KT 09/04 A3028 RMK A01 T00910035  RH  068%=      5-min Rain = 0
KLE1 060159Z 06007KT 09/04 A3028 RMK A01 T00900035  RH  068%=      5-min Rain = 0
KLE1 060200Z 06006KT 09/03 A3028 RMK A01 T00890034  RH  068%=      5-min Rain = 0
KLE1 060201Z 06006KT 09/03 A3028 RMK A01 T00880033  RH  068%=      5-min Rain = 0
KLE1 060202Z 06006KT 09/03 A3028 RMK A01 T00870033  RH  069%=      5-min Rain = 0
KLE1 060203Z 06006KT 09/03 A3028 RMK A01 T00860033  RH  069%=      5-min Rain = 0
KLE1 060204Z 06006KT 09/03 A3028 RMK A01 T00850033  RH  070%=      5-min Rain = 0
KLE1 060205Z 06006KT 09/03 A3028 RMK A01 T00850034  RH  070%=      5-min Rain = 0
KLE1 060206Z 06007KT 09/03 A3028 RMK A01 T00850034  RH  070%=      5-min Rain = 0
KLE1 060207Z 06006KT 09/03 A3028 RMK A01 T00850034  RH  070%=      5-min Rain = 0
KLE1 060208Z 06007KT 09/03 A3028 RMK A01 T00850034  RH  070%=      5-min Rain = 0
KLE1 060209Z 06007KT 09/04 A3028 RMK A01 T00850035  RH  071%=      5-min Rain = 0
KLE1 060210Z 06006KT 09/04 A3028 RMK A01 T00850035  RH  071%=      5-min Rain = 0
KLE1 060211Z 06006KT 09/04 A3028 RMK A01 T00850035  RH  071%=      5-min Rain = 0
KLE1 060212Z 06006KT 09/04 A3028 RMK A01 T00850035  RH  071%=      5-min Rain = 0
KLE1 060213Z 06006KT 09/04 A3029 RMK A01 T00860035  RH  071%=      5-min Rain = 0
KLE1 060214Z 06006KT 09/04 A3029 RMK A01 T00860036  RH  071%=      5-min Rain = 0
KLE1 060215Z 06006KT 09/04 A3029 RMK A01 T00860036  RH  071%=      5-min Rain = 0
KLE1 060216Z 06005KT 09/04 A3029 RMK A01 T00870036  RH  070%=      5-min Rain = 0
KLE1 060217Z 06005KT 09/04 A3029 RMK A01 T00870036  RH  070%=      5-min Rain = 0
KLE1 060218Z 07005KT 09/04 A3029 RMK A01 T00870036  RH  070%=      5-min Rain = 0
KLE1 060219Z 06005KT 09/04 A3029 RMK A01 T00870036  RH  071%=      5-min Rain = 0
KLE1 060220Z 06005KT 09/04 A3029 RMK A01 T00870036  RH  071%=      5-min Rain = 0
KLE1 060221Z 06005KT 09/04 A3029 RMK A01 T00870037  RH  071%=      5-min Rain = 0
KLE1 060222Z 06005KT 09/04 A3029 RMK A01 T00870037  RH  071%=      5-min Rain = 0
KLE1 060223Z 06004KT 09/04 A3029 RMK A01 T00880037  RH  071%=      5-min Rain = 0
KLE1 060224Z 06004KT 09/04 A3029 RMK A01 T00880038  RH  071%=      5-min Rain = 0
KLE1 060225Z 06005KT 09/04 A3029 RMK A01 T00890038  RH  071%=      5-min Rain = 0
KLE1 060226Z 06005KT 09/04 A3029 RMK A01 T00890038  RH  070%=      5-min Rain = 0
KLE1 060227Z 06005KT 09/04 A3029 RMK A01 T00900039  RH  070%=      5-min Rain = 0
KLE1 060228Z 06005KT 09/04 A3029 RMK A01 T00900039  RH  070%=      5-min Rain = 0
KLE1 060229Z 05005KT 09/04 A3029 RMK A01 T00900039  RH  070%=      5-min Rain = 0
KLE1 060230Z 05005KT 09/04 A3029 RMK A01 T00900039  RH  070%=      5-min Rain = 0
KLE1 060231Z 05005KT 09/04 A3029 RMK A01 T00900038  RH  070%=      5-min Rain = 0
KLE1 060232Z 05005KT 09/04 A3029 RMK A01 T00900038  RH  070%=      5-min Rain = 0
KLE1 060233Z 05005KT 09/04 A3029 RMK A01 T00890038  RH  070%=      5-min Rain = 0
KLE1 060234Z 05005KT 09/04 A3029 RMK A01 T00890038  RH  071%=      5-min Rain = 0
KLE1 060235Z 05005KT 09/04 A3029 RMK A01 T00890038  RH  071%=      5-min Rain = 0
KLE1 060236Z 05005KT 09/04 A3029 RMK A01 T00880039  RH  071%=      5-min Rain = 0
KLE1 060237Z 05004KT 09/04 A3029 RMK A01 T00880039  RH  071%=      5-min Rain = 0
KLE1 060238Z 05004KT 09/04 A303 RMK A01 T00880039  RH  071%=      5-min Rain = 0
KLE1 060239Z 04004KT 09/04 A303 RMK A01 T00890039  RH  071%=      5-min Rain = 0
KLE1 060240Z 04005KT 09/04 A303 RMK A01 T00890039  RH  071%=      5-min Rain = 0
KLE1 060241Z 04005KT 09/04 A303 RMK A01 T00900040  RH  071%=      5-min Rain = 0
KLE1 060242Z 04005KT 09/04 A303 RMK A01 T00890039  RH  071%=      5-min Rain = 0
KLE1 060243Z 04005KT 09/04 A303 RMK A01 T00880039  RH  071%=      5-min Rain = 0
KLE1 060244Z 04005KT 09/04 A303 RMK A01 T00880039  RH  071%=      5-min Rain = 0
KLE1 060245Z 04005KT 09/04 A303 RMK A01 T00880039  RH  071%=      5-min Rain = 0
KLE1 060246Z 04005KT 09/04 A303 RMK A01 T00870038  RH  072%=      5-min Rain = 0
KLE1 060247Z 04006KT 09/04 A303 RMK A01 T00870039  RH  072%=      5-min Rain = 0
KLE1 060248Z 04005KT 09/04 A303 RMK A01 T00870039  RH  072%=      5-min Rain = 0
KLE1 060249Z 04005KT 09/04 A303 RMK A01 T00860038  RH  072%=      5-min Rain = 0
KLE1 060250Z 04005KT 09/04 A303 RMK A01 T00850037  RH  072%=      5-min Rain = 0
KLE1 060251Z 04005KT 09/04 A303 RMK A01 T00850037  RH  072%=      5-min Rain = 0
KLE1 060252Z 03006KT 08/04 A303 RMK A01 T00840037  RH  072%=      5-min Rain = 0
KLE1 060253Z 03006KT 08/04 A303 RMK A01 T00840037  RH  072%=      5-min Rain = 0
KLE1 060254Z 03005KT 08/04 A303 RMK A01 T00840038  RH  073%=      5-min Rain = 0
KLE1 060255Z 03005KT 08/04 A303 RMK A01 T00840038  RH  073%=      5-min Rain = 0
KLE1 060256Z 03006KT 08/04 A303 RMK A01 T00840038  RH  073%=      5-min Rain = 0
KLE1 060257Z 03006KT 08/04 A303 RMK A01 T00840038  RH  073%=      5-min Rain = 0
KLE1 060258Z 03005KT 08/04 A303 RMK A01 T00840038  RH  073%=      5-min Rain = 0
KLE1 060259Z 03006KT 08/04 A303 RMK A01 T00840038  RH  073%=      5-min Rain = 0
KLE1 060300Z 03006KT 08/04 A303 RMK A01 T00840038  RH  073%=      5-min Rain = 0
KLE1 060301Z 03006KT 08/04 A303 RMK A01 T00830037  RH  073%=      5-min Rain = 0
KLE1 060302Z 03006KT 08/04 A303 RMK A01 T00830037  RH  073%=      5-min Rain = 0
KLE1 060303Z 03006KT 08/04 A303 RMK A01 T00820037  RH  073%=      5-min Rain = 0
KLE1 060304Z 03006KT 08/04 A303 RMK A01 T00820037  RH  073%=      5-min Rain = 0
KLE1 060305Z 04007KT 08/04 A303 RMK A01 T00810036  RH  073%=      5-min Rain = 0
KLE1 060306Z 03007KT 08/04 A303 RMK A01 T00810037  RH  074%=      5-min Rain = 0
KLE1 060307Z 03006KT 08/04 A303 RMK A01 T00800036  RH  074%=      5-min Rain = 0
KLE1 060308Z 03007KT 08/04 A303 RMK A01 T00810037  RH  074%=      5-min Rain = 0
KLE1 060309Z 03006KT 08/04 A303 RMK A01 T00810037  RH  074%=      5-min Rain = 0
KLE1 060310Z 03007KT 08/04 A303 RMK A01 T00810037  RH  074%=      5-min Rain = 0
KLE1 060311Z 03007KT 08/04 A303 RMK A01 T00810038  RH  074%=      5-min Rain = 0
KLE1 060312Z 03007KT 08/04 A303 RMK A01 T00810037  RH  074%=      5-min Rain = 0
KLE1 060313Z 03007KT 08/04 A3031 RMK A01 T00800037  RH  074%=      5-min Rain = 0
KLE1 060314Z 03007KT 08/04 A3031 RMK A01 T00790036  RH  074%=      5-min Rain = 0
KLE1 060315Z 03006KT 08/04 A3031 RMK A01 T00780036  RH  075%=      5-min Rain = 0
KLE1 060316Z 03006KT 08/04 A3031 RMK A01 T00790037  RH  075%=      5-min Rain = 0
KLE1 060317Z 03006KT 08/04 A3031 RMK A01 T00780037  RH  075%=      5-min Rain = 0
KLE1 060318Z 03006KT 08/04 A3031 RMK A01 T00780036  RH  075%=      5-min Rain = 0
KLE1 060319Z 03006KT 08/04 A3031 RMK A01 T00770036  RH  075%=      5-min Rain = 0
KLE1 060320Z 03006KT 08/04 A3031 RMK A01 T00760035  RH  075%=      5-min Rain = 0
KLE1 060321Z 03006KT 08/04 A3031 RMK A01 T00750035  RH  076%=      5-min Rain = 0
KLE1 060322Z 03006KT 08/04 A3031 RMK A01 T00750035  RH  076%=      5-min Rain = 0
KLE1 060323Z 03006KT 07/04 A3031 RMK A01 T00740035  RH  076%=      5-min Rain = 0
KLE1 060324Z 03006KT 07/04 A3031 RMK A01 T00740035  RH  076%=      5-min Rain = 0
KLE1 060325Z 04006KT 07/04 A3031 RMK A01 T00740035  RH  076%=      5-min Rain = 0
KLE1 060326Z 04006KT 07/03 A3031 RMK A01 T00730034  RH  076%=      5-min Rain = 0
KLE1 060327Z 04006KT 07/03 A3031 RMK A01 T00720034  RH  077%=      5-min Rain = 0
KLE1 060328Z 04005KT 07/04 A3031 RMK A01 T00720035  RH  077%=      5-min Rain = 0
KLE1 060329Z 04005KT 07/04 A3031 RMK A01 T00720035  RH  077%=      5-min Rain = 0
KLE1 060330Z 04006KT 07/04 A3031 RMK A01 T00730036  RH  077%=      5-min Rain = 0
KLE1 060331Z 04006KT 07/04 A3031 RMK A01 T00740036  RH  077%=      5-min Rain = 0
KLE1 060332Z 04006KT 07/04 A3031 RMK A01 T00740036  RH  077%=      5-min Rain = 0
KLE1 060333Z 04006KT 07/04 A3031 RMK A01 T00740036  RH  077%=      5-min Rain = 0
KLE1 060334Z 04006KT 07/04 A3031 RMK A01 T00740036  RH  077%=      5-min Rain = 0
KLE1 060335Z 04006KT 07/04 A3031 RMK A01 T00740035  RH  077%=      5-min Rain = 0
KLE1 060336Z 04006KT 07/04 A3031 RMK A01 T00740035  RH  077%=      5-min Rain = 0
KLE1 060337Z 04006KT 07/04 A3031 RMK A01 T00740036  RH  077%=      5-min Rain = 0
KLE1 060338Z 05006KT 07/04 A3031 RMK A01 T00740035  RH  077%=      5-min Rain = 0
KLE1 060339Z 05006KT 07/04 A3031 RMK A01 T00740035  RH  076%=      5-min Rain = 0
KLE1 060340Z 05006KT 07/04 A3031 RMK A01 T00740035  RH  076%=      5-min Rain = 0
KLE1 060341Z 05005KT 07/04 A3031 RMK A01 T00740035  RH  077%=      5-min Rain = 0
KLE1 060342Z 05005KT 07/04 A3031 RMK A01 T00730035  RH  077%=      5-min Rain = 0
KLE1 060343Z 05005KT 07/04 A3031 RMK A01 T00730035  RH  077%=      5-min Rain = 0
KLE1 060344Z 05005KT 07/04 A3031 RMK A01 T00730035  RH  077%=      5-min Rain = 0
KLE1 060345Z 05005KT 07/03 A3031 RMK A01 T00720034  RH  077%=      5-min Rain = 0
KLE1 060346Z 05005KT 07/03 A3031 RMK A01 T00720034  RH  077%=      5-min Rain = 0
KLE1 060347Z 05005KT 07/03 A3031 RMK A01 T00710034  RH  077%=      5-min Rain = 0
KLE1 060348Z 06005KT 07/03 A3032 RMK A01 T00700033  RH  077%=      5-min Rain = 0
KLE1 060349Z 05005KT 07/03 A3032 RMK A01 T00700033  RH  077%=      5-min Rain = 0
KLE1 060350Z 05005KT 07/03 A3032 RMK A01 T00690033  RH  077%=      5-min Rain = 0
KLE1 060351Z 05005KT 07/03 A3032 RMK A01 T00690033  RH  078%=      5-min Rain = 0
KLE1 060352Z 05005KT 07/03 A3032 RMK A01 T00690032  RH  078%=      5-min Rain = 0
KLE1 060353Z 05005KT 07/03 A3032 RMK A01 T00690033  RH  078%=      5-min Rain = 0
KLE1 060354Z 05005KT 07/03 A3032 RMK A01 T00680033  RH  078%=      5-min Rain = 0
KLE1 060355Z 05005KT 07/03 A3032 RMK A01 T00680033  RH  078%=      5-min Rain = 0
KLE1 060356Z 05005KT 07/03 A3032 RMK A01 T00690034  RH  078%=      5-min Rain = 0
KLE1 060357Z 05005KT 07/04 A3032 RMK A01 T00700035  RH  078%=      5-min Rain = 0
KLE1 060358Z 04005KT 07/03 A3032 RMK A01 T00700034  RH  078%=      5-min Rain = 0
KLE1 060359Z 04005KT 07/03 A3032 RMK A01 T00700033  RH  077%=      5-min Rain = 0
KLE1 060400Z 04005KT 07/03 A3032 RMK A01 T00700033  RH  078%=      5-min Rain = 0
KLE1 060401Z 04005KT 07/03 A3032 RMK A01 T00690033  RH  078%=      5-min Rain = 0
KLE1 060402Z 04006KT 07/03 A3032 RMK A01 T00680032  RH  078%=      5-min Rain = 0
KLE1 060403Z 04006KT 07/03 A3032 RMK A01 T00670031  RH  078%=      5-min Rain = 0
KLE1 060404Z 04006KT 07/03 A3032 RMK A01 T00660031  RH  078%=      5-min Rain = 0
KLE1 060405Z 03006KT 06/03 A3032 RMK A01 T00640029  RH  078%=      5-min Rain = 0
KLE1 060406Z 03006KT 06/03 A3032 RMK A01 T00630029  RH  079%=      5-min Rain = 0
KLE1 060407Z 03006KT 06/03 A3032 RMK A01 T00610028  RH  079%=      5-min Rain = 0
KLE1 060408Z 04005KT 06/03 A3032 RMK A01 T00600028  RH  080%=      5-min Rain = 0
KLE1 060409Z 04005KT 06/03 A3032 RMK A01 T00600029  RH  080%=      5-min Rain = 0
KLE1 060410Z 04006KT 06/03 A3032 RMK A01 T00590028  RH  081%=      5-min Rain = 0
KLE1 060411Z 04005KT 06/03 A3032 RMK A01 T00590029  RH  081%=      5-min Rain = 0
KLE1 060412Z 04005KT 06/03 A3032 RMK A01 T00600030  RH  081%=      5-min Rain = 0
KLE1 060413Z 04006KT 06/03 A3032 RMK A01 T00600030  RH  081%=      5-min Rain = 0
KLE1 060414Z 04006KT 06/03 A3032 RMK A01 T00600029  RH  081%=      5-min Rain = 0
KLE1 060415Z 04006KT 06/03 A3032 RMK A01 T00600028  RH  080%=      5-min Rain = 0
KLE1 060416Z 03006KT 06/03 A3032 RMK A01 T00580027  RH  081%=      5-min Rain = 0
KLE1 060417Z 03006KT 06/03 A3032 RMK A01 T00580028  RH  081%=      5-min Rain = 0
KLE1 060418Z 03006KT 06/03 A3032 RMK A01 T00580029  RH  082%=      5-min Rain = 0
KLE1 060419Z 03006KT 06/03 A3032 RMK A01 T00580029  RH  082%=      5-min Rain = 0
KLE1 060420Z 03006KT 06/03 A3032 RMK A01 T00570028  RH  081%=      5-min Rain = 0
KLE1 060421Z 03006KT 06/03 A3033 RMK A01 T00560027  RH  081%=      5-min Rain = 0
KLE1 060422Z 03006KT 06/03 A3033 RMK A01 T00550025  RH  081%=      5-min Rain = 0
KLE1 060423Z 03006KT 05/03 A3033 RMK A01 T00530025  RH  082%=      5-min Rain = 0
KLE1 060424Z 03006KT 05/03 A3033 RMK A01 T00530026  RH  082%=      5-min Rain = 0
KLE1 060425Z 03006KT 05/03 A3033 RMK A01 T00520025  RH  082%=      5-min Rain = 0
KLE1 060426Z 03006KT 05/03 A3033 RMK A01 T00520025  RH  083%=      5-min Rain = 0
KLE1 060427Z 03006KT 05/03 A3033 RMK A01 T00510025  RH  083%=      5-min Rain = 0
KLE1 060428Z 03006KT 05/02 A3033 RMK A01 T00510024  RH  083%=      5-min Rain = 0
KLE1 060429Z 03006KT 05/02 A3033 RMK A01 T00500024  RH  083%=      5-min Rain = 0
KLE1 060430Z 03006KT 05/03 A3033 RMK A01 T00510025  RH  084%=      5-min Rain = 0
KLE1 060431Z 03006KT 05/03 A3033 RMK A01 T00510026  RH  084%=      5-min Rain = 0
KLE1 060432Z 03006KT 05/03 A3033 RMK A01 T00510026  RH  084%=      5-min Rain = 0
KLE1 060433Z 03006KT 05/03 A3033 RMK A01 T00520027  RH  084%=      5-min Rain = 0
KLE1 060434Z 03006KT 05/03 A3033 RMK A01 T00520027  RH  084%=      5-min Rain = 0
KLE1 060435Z 03006KT 05/03 A3033 RMK A01 T00530028  RH  084%=      5-min Rain = 0
KLE1 060436Z 03006KT 05/03 A3033 RMK A01 T00540028  RH  084%=      5-min Rain = 0
KLE1 060437Z 03006KT 05/03 A3033 RMK A01 T00540029  RH  084%=      5-min Rain = 0
KLE1 060438Z 03006KT 06/03 A3033 RMK A01 T00550029  RH  084%=      5-min Rain = 0
KLE1 060439Z 03006KT 06/03 A3033 RMK A01 T00550029  RH  083%=      5-min Rain = 0
KLE1 060440Z 04006KT 06/03 A3033 RMK A01 T00550029  RH  083%=      5-min Rain = 0
KLE1 060441Z 04006KT 06/03 A3033 RMK A01 T00560030  RH  083%=      5-min Rain = 0
KLE1 060442Z 03006KT 06/03 A3033 RMK A01 T00560029  RH  083%=      5-min Rain = 0
KLE1 060443Z 03005KT 06/03 A3033 RMK A01 T00560030  RH  083%=      5-min Rain = 0
KLE1 060444Z 03006KT 06/03 A3033 RMK A01 T00550029  RH  083%=      5-min Rain = 0
KLE1 060445Z 02006KT 06/03 A3033 RMK A01 T00550029  RH  083%=      5-min Rain = 0
KLE1 060446Z 02006KT 05/03 A3033 RMK A01 T00540028  RH  083%=      5-min Rain = 0
KLE1 060447Z 02005KT 05/03 A3033 RMK A01 T00540028  RH  083%=      5-min Rain = 0
KLE1 060448Z 02005KT 05/03 A3033 RMK A01 T00540028  RH  084%=      5-min Rain = 0
KLE1 060449Z 02006KT 05/03 A3033 RMK A01 T00530027  RH  083%=      5-min Rain = 0
KLE1 060450Z 01005KT 05/03 A3033 RMK A01 T00530026  RH  083%=      5-min Rain = 0
KLE1 060451Z 34003KT 05/03 A3033 RMK A01 T00520025  RH  083%=      5-min Rain = 0
KLE1 060452Z 27003KT 05/02 A3033 RMK A01 T00480018  RH  081%=      5-min Rain = 0
KLE1 060453Z 25004KT 05/02 A3033 RMK A01 T00450015  RH  081%=      5-min Rain = 0
KLE1 060454Z 25005KT 04/01 A3033 RMK A01 T00420014  RH  082%=      5-min Rain = 0
KLE1 060455Z 26004KT 04/01 A3033 RMK A01 T00400014  RH  083%=      5-min Rain = 0
KLE1 060456Z 26004KT 04/01 A3033 RMK A01 T00390014  RH  084%=      5-min Rain = 0
KLE1 060457Z 27003KT 04/02 A3033 RMK A01 T00380016  RH  085%=      5-min Rain = 0
KLE1 060458Z 27002KT 04/02 A3033 RMK A01 T00380017  RH  086%=      5-min Rain = 0
KLE1 060459Z 25004KT 04/02 A3033 RMK A01 T00380016  RH  086%=      5-min Rain = 0
KLE1 060500Z 27004KT 04/01 A3033 RMK A01 T00370014  RH  085%=      5-min Rain = 0
KLE1 060501Z 27004KT 04/02 A3033 RMK A01 T00360015  RH  086%=      5-min Rain = 0
KLE1 060502Z 27004KT 04/02 A3033 RMK A01 T00360016  RH  087%=      5-min Rain = 0
KLE1 060503Z 27004KT 04/02 A3033 RMK A01 T00360017  RH  087%=      5-min Rain = 0
KLE1 060504Z 28004KT 04/02 A3033 RMK A01 T00370017  RH  087%=      5-min Rain = 0
KLE1 060505Z 28004KT 04/02 A3033 RMK A01 T00370017  RH  087%=      5-min Rain = 0
KLE1 060506Z 28004KT 04/02 A3033 RMK A01 T00380017  RH  087%=      5-min Rain = 0
KLE1 060507Z 28004KT 04/02 A3033 RMK A01 T00380017  RH  086%=      5-min Rain = 0
KLE1 060508Z 28004KT 04/02 A3033 RMK A01 T00380017  RH  086%=      5-min Rain = 0
KLE1 060509Z 29004KT 04/02 A3033 RMK A01 T00390018  RH  087%=      5-min Rain = 0
KLE1 060510Z 29004KT 04/02 A3033 RMK A01 T00400020  RH  087%=      5-min Rain = 0
KLE1 060511Z 29005KT 04/02 A3033 RMK A01 T00410020  RH  086%=      5-min Rain = 0
KLE1 060512Z 29005KT 04/02 A3033 RMK A01 T00420020  RH  086%=      5-min Rain = 0
KLE1 060513Z 29005KT 04/02 A3033 RMK A01 T00410018  RH  085%=      5-min Rain = 0
KLE1 060514Z 29006KT 04/02 A3033 RMK A01 T00410017  RH  085%=      5-min Rain = 0
KLE1 060515Z 29006KT 04/02 A3033 RMK A01 T00400018  RH  085%=      5-min Rain = 0
KLE1 060516Z 30006KT 04/02 A3033 RMK A01 T00400018  RH  086%=      5-min Rain = 0
KLE1 060517Z 30006KT 04/02 A3033 RMK A01 T00390017  RH  086%=      5-min Rain = 0
KLE1 060518Z 30006KT 04/02 A3033 RMK A01 T00390018  RH  086%=      5-min Rain = 0
KLE1 060519Z 30006KT 04/02 A3033 RMK A01 T00400019  RH  087%=      5-min Rain = 0
KLE1 060520Z 30006KT 04/02 A3033 RMK A01 T00400019  RH  087%=      5-min Rain = 0
KLE1 060521Z 30006KT 04/02 A3033 RMK A01 T00400019  RH  086%=      5-min Rain = 0
KLE1 060522Z 30006KT 04/02 A3033 RMK A01 T00400020  RH  087%=      5-min Rain = 0
KLE1 060523Z 30007KT 04/02 A3033 RMK A01 T00410021  RH  087%=      5-min Rain = 0
KLE1 060524Z 31006KT 04/02 A3033 RMK A01 T00410020  RH  086%=      5-min Rain = 0
KLE1 060525Z 30006KT 04/02 A3033 RMK A01 T00410020  RH  086%=      5-min Rain = 0
KLE1 060526Z 31006KT 04/02 A3033 RMK A01 T00410021  RH  087%=      5-min Rain = 0
KLE1 060527Z 31006KT 04/02 A3033 RMK A01 T00420022  RH  087%=      5-min Rain = 0
KLE1 060528Z 31006KT 04/02 A3033 RMK A01 T00430022  RH  087%=      5-min Rain = 0
KLE1 060529Z 30006KT 04/02 A3033 RMK A01 T00430022  RH  087%=      5-min Rain = 0
KLE1 060530Z 30006KT 04/02 A3033 RMK A01 T00440024  RH  087%=      5-min Rain = 0
KLE1 060531Z 30006KT 05/03 A3033 RMK A01 T00450025  RH  087%=      5-min Rain = 0
KLE1 060532Z 30006KT 05/03 A3033 RMK A01 T00460025  RH  086%=      5-min Rain = 0
KLE1 060533Z 30006KT 05/03 A3033 RMK A01 T00460025  RH  086%=      5-min Rain = 0
KLE1 060534Z 31006KT 05/03 A3033 RMK A01 T00460025  RH  086%=      5-min Rain = 0
KLE1 060535Z 31006KT 05/03 A3033 RMK A01 T00470026  RH  086%=      5-min Rain = 0
KLE1 060536Z 31006KT 05/03 A3033 RMK A01 T00480026  RH  086%=      5-min Rain = 0
KLE1 060537Z 31006KT 05/03 A3033 RMK A01 T00480025  RH  085%=      5-min Rain = 0
KLE1 060538Z 31006KT 05/03 A3033 RMK A01 T00480025  RH  085%=      5-min Rain = 0
KLE1 060539Z 31005KT 05/03 A3033 RMK A01 T00480025  RH  085%=      5-min Rain = 0
KLE1 060540Z 31006KT 05/03 A3033 RMK A01 T00480025  RH  085%=      5-min Rain = 0
KLE1 060541Z 31006KT 05/03 A3033 RMK A01 T00480025  RH  085%=      5-min Rain = 0
KLE1 060542Z 31006KT 05/03 A3033 RMK A01 T00480025  RH  085%=      5-min Rain = 0
KLE1 060543Z 32006KT 05/02 A3033 RMK A01 T00480024  RH  085%=      5-min Rain = 0
KLE1 060544Z 32006KT 05/02 A3033 RMK A01 T00460022  RH  084%=      5-min Rain = 0
KLE1 060545Z 32006KT 05/02 A3033 RMK A01 T00450022  RH  085%=      5-min Rain = 0
KLE1 060546Z 32006KT 04/02 A3033 RMK A01 T00440021  RH  085%=      5-min Rain = 0
KLE1 060547Z 32006KT 04/02 A3033 RMK A01 T00440021  RH  085%=      5-min Rain = 0
KLE1 060548Z 32006KT 04/02 A3033 RMK A01 T00430021  RH  086%=      5-min Rain = 0
KLE1 060549Z 32006KT 04/02 A3033 RMK A01 T00420020  RH  086%=      5-min Rain = 0
KLE1 060550Z 32006KT 04/02 A3033 RMK A01 T00410019  RH  086%=      5-min Rain = 0
KLE1 060551Z 32006KT 04/02 A3033 RMK A01 T00390018  RH  086%=      5-min Rain = 0
KLE1 060552Z 32006KT 04/02 A3033 RMK A01 T00380017  RH  086%=      5-min Rain = 0
KLE1 060553Z 32006KT 04/02 A3033 RMK A01 T00370017  RH  087%=      5-min Rain = 0
KLE1 060554Z 32006KT 04/02 A3033 RMK A01 T00370018  RH  087%=      5-min Rain = 0
KLE1 060555Z 32006KT 04/02 A3033 RMK A01 T00360017  RH  087%=      5-min Rain = 0
KLE1 060556Z 32006KT 04/02 A3033 RMK A01 T00360018  RH  088%=      5-min Rain = 0
KLE1 060557Z 32007KT 04/02 A3033 RMK A01 T00350017  RH  088%=      5-min Rain = 0
KLE1 060558Z 32007KT 04/02 A3033 RMK A01 T00350017  RH  088%=      5-min Rain = 0
KLE1 060559Z 32007KT 04/02 A3033 RMK A01 T00350018  RH  088%=      5-min Rain = 0

Page generated in 0.1292 seconds.